Observation data for Bootleg on 06/03/2020      Previous  Date  Next       Current Mesonet Observations  Soil Data  Daily Summary Page  Observations in Plain Language
KBO1 030500Z 02000KT 24/10 A3018 RMK A01 T02350102  RH  043%=      5-min Rain = 0
KBO1 030501Z 02000KT 23/10 A3018 RMK A01 T02340101  RH  043%=      5-min Rain = 0
KBO1 030502Z 01000KT 23/10 A3018 RMK A01 T02330101  RH  043%=      5-min Rain = 0
KBO1 030503Z 01001KT 23/10 A3018 RMK A01 T02330101  RH  043%=      5-min Rain = 0
KBO1 030504Z 01001KT 23/10 A3018 RMK A01 T02330101  RH  043%=      5-min Rain = 0
KBO1 030505Z 02002KT 23/10 A3018 RMK A01 T02340101  RH  043%=      5-min Rain = 0
KBO1 030506Z 02001KT 24/10 A3018 RMK A01 T02350101  RH  043%=      5-min Rain = 0
KBO1 030507Z 02001KT 24/10 A3018 RMK A01 T02370102  RH  042%=      5-min Rain = 0
KBO1 030508Z 03001KT 24/10 A3018 RMK A01 T02370101  RH  042%=      5-min Rain = 0
KBO1 030509Z 03001KT 24/10 A3018 RMK A01 T02360101  RH  042%=      5-min Rain = 0
KBO1 030510Z 03000KT 24/10 A3018 RMK A01 T02360101  RH  042%=      5-min Rain = 0
KBO1 030511Z 00000KT 24/10 A3018 RMK A01 T02360101  RH  042%=      5-min Rain = 0
KBO1 030512Z 00000KT 24/10 A3018 RMK A01 T02350100  RH  042%=      5-min Rain = 0
KBO1 030513Z 00000KT 24/10 A3018 RMK A01 T02350100  RH  042%=      5-min Rain = 0
KBO1 030514Z 17001KT 23/10 A3018 RMK A01 T02330100  RH  043%=      5-min Rain = 0
KBO1 030515Z 17002KT 23/10 A3018 RMK A01 T02290100  RH  044%=      5-min Rain = 0
KBO1 030516Z 17002KT 22/10 A3018 RMK A01 T02230101  RH  046%=      5-min Rain = 0
KBO1 030517Z 17002KT 22/10 A3018 RMK A01 T02200101  RH  047%=      5-min Rain = 0
KBO1 030518Z 17002KT 22/10 A3018 RMK A01 T02180101  RH  047%=      5-min Rain = 0
KBO1 030519Z 16002KT 22/10 A3018 RMK A01 T02180101  RH  047%=      5-min Rain = 0
KBO1 030520Z 15002KT 22/10 A3018 RMK A01 T02180101  RH  047%=      5-min Rain = 0
KBO1 030521Z 14002KT 22/10 A3018 RMK A01 T02180101  RH  047%=      5-min Rain = 0
KBO1 030522Z 15001KT 22/10 A3018 RMK A01 T02190102  RH  047%=      5-min Rain = 0
KBO1 030523Z 15001KT 22/10 A3018 RMK A01 T02200102  RH  047%=      5-min Rain = 0
KBO1 030524Z 14001KT 22/10 A3018 RMK A01 T02230101  RH  046%=      5-min Rain = 0
KBO1 030525Z 14001KT 23/10 A3018 RMK A01 T02260101  RH  045%=      5-min Rain = 0
KBO1 030526Z 13001KT 23/10 A3018 RMK A01 T02290101  RH  044%=      5-min Rain = 0
KBO1 030527Z 13000KT 23/10 A3018 RMK A01 T02310101  RH  044%=      5-min Rain = 0
KBO1 030528Z 15000KT 23/10 A3018 RMK A01 T02330101  RH  043%=      5-min Rain = 0
KBO1 030529Z 14001KT 23/10 A3018 RMK A01 T02340101  RH  043%=      5-min Rain = 0
KBO1 030530Z 16001KT 23/10 A3018 RMK A01 T02340101  RH  043%=      5-min Rain = 0
KBO1 030531Z 15002KT 23/10 A3018 RMK A01 T02340102  RH  043%=      5-min Rain = 0
KBO1 030532Z 16003KT 23/10 A3018 RMK A01 T02320102  RH  044%=      5-min Rain = 0
KBO1 030533Z 16004KT 23/10 A3018 RMK A01 T02310102  RH  044%=      5-min Rain = 0
KBO1 030534Z 16004KT 23/10 A3018 RMK A01 T02290102  RH  045%=      5-min Rain = 0
KBO1 030535Z 17004KT 23/10 A3018 RMK A01 T02280102  RH  045%=      5-min Rain = 0
KBO1 030536Z 17004KT 23/10 A3018 RMK A01 T02280102  RH  045%=      5-min Rain = 0
KBO1 030537Z 17004KT 23/10 A3018 RMK A01 T02280102  RH  045%=      5-min Rain = 0
KBO1 030538Z 17003KT 23/10 A3018 RMK A01 T02280102  RH  045%=      5-min Rain = 0
KBO1 030539Z 17003KT 23/10 A3018 RMK A01 T02280101  RH  044%=      5-min Rain = 0
KBO1 030540Z 17003KT 23/10 A3018 RMK A01 T02300101  RH  044%=      5-min Rain = 0
KBO1 030541Z 15003KT 23/10 A3018 RMK A01 T02300102  RH  044%=      5-min Rain = 0
KBO1 030542Z 15002KT 23/10 A3018 RMK A01 T02290102  RH  045%=      5-min Rain = 0
KBO1 030543Z 17003KT 23/10 A3018 RMK A01 T02280102  RH  045%=      5-min Rain = 0
KBO1 030544Z 17003KT 23/10 A3018 RMK A01 T02280101  RH  045%=      5-min Rain = 0
KBO1 030545Z 16003KT 23/10 A3018 RMK A01 T02280101  RH  045%=      5-min Rain = 0
KBO1 030546Z 16003KT 23/10 A3018 RMK A01 T02290100  RH  044%=      5-min Rain = 0
KBO1 030547Z 17003KT 23/10 A3018 RMK A01 T02300101  RH  044%=      5-min Rain = 0
KBO1 030548Z 18005KT 23/10 A3018 RMK A01 T02310102  RH  044%=      5-min Rain = 0
KBO1 030549Z 17006KT 23/10 A3018 RMK A01 T02280101  RH  044%=      5-min Rain = 0
KBO1 030550Z 17008KT 23/10 A3018 RMK A01 T02260101  RH  045%=      5-min Rain = 0
KBO1 030551Z 18008KT 22/10 A3018 RMK A01 T02230101  RH  046%=      5-min Rain = 0
KBO1 030552Z 17009KT 22/10 A3018 RMK A01 T02200101  RH  047%=      5-min Rain = 0
KBO1 030553Z 17009KT 22/10 A3018 RMK A01 T02190101  RH  047%=      5-min Rain = 0
KBO1 030554Z 17009KT 22/10 A3018 RMK A01 T02190100  RH  047%=      5-min Rain = 0
KBO1 030555Z 17009KT 22/10 A3018 RMK A01 T02190100  RH  047%=      5-min Rain = 0
KBO1 030556Z 17009KT 22/10 A3018 RMK A01 T02180100  RH  047%=      5-min Rain = 0
KBO1 030557Z 17008KT 22/10 A3018 RMK A01 T02180100  RH  047%=      5-min Rain = 0
KBO1 030558Z 16008KT 22/10 A3018 RMK A01 T02180100  RH  047%=      5-min Rain = 0
KBO1 030559Z 16007KT 22/10 A3018 RMK A01 T02180100  RH  047%=      5-min Rain = 0
KBO1 030600Z 16007KT 22/10 A3018 RMK A01 T02190100  RH  047%=      5-min Rain = 0
KBO1 030601Z 16007KT 22/10 A3018 RMK A01 T02200100  RH  046%=      5-min Rain = 0
KBO1 030602Z 17006KT 22/10 A3018 RMK A01 T02210100  RH  046%=      5-min Rain = 0
KBO1 030603Z 17008KT 22/10 A3018 RMK A01 T02210100  RH  046%=      5-min Rain = 0
KBO1 030604Z 17008KT 22/10 A3018 RMK A01 T02200100  RH  046%=      5-min Rain = 0
KBO1 030605Z 17008KT 22/10 A3018 RMK A01 T02200099  RH  046%=      5-min Rain = 0
KBO1 030606Z 17008KT 22/10 A3018 RMK A01 T02200099  RH  046%=      5-min Rain = 0
KBO1 030607Z 17008KT 22/10 A3017 RMK A01 T02200099  RH  046%=      5-min Rain = 0
KBO1 030608Z 17008KT 22/10 A3017 RMK A01 T02200099  RH  046%=      5-min Rain = 0
KBO1 030609Z 17008KT 22/10 A3017 RMK A01 T02210099  RH  046%=      5-min Rain = 0
KBO1 030610Z 17007KT 22/10 A3017 RMK A01 T02220099  RH  046%=      5-min Rain = 0
KBO1 030611Z 17007KT 22/10 A3017 RMK A01 T02230099  RH  045%=      5-min Rain = 0
KBO1 030612Z 17007KT 22/10 A3017 RMK A01 T02230099  RH  045%=      5-min Rain = 0
KBO1 030613Z 17007KT 22/10 A3017 RMK A01 T02220099  RH  045%=      5-min Rain = 0
KBO1 030614Z 19007KT 22/10 A3017 RMK A01 T02230099  RH  045%=      5-min Rain = 0
KBO1 030615Z 19007KT 22/10 A3017 RMK A01 T02230099  RH  045%=      5-min Rain = 0
KBO1 030616Z 19007KT 22/10 A3017 RMK A01 T02240100  RH  045%=      5-min Rain = 0
KBO1 030617Z 19007KT 23/10 A3017 RMK A01 T02250100  RH  045%=      5-min Rain = 0
KBO1 030618Z 19007KT 22/10 A3017 RMK A01 T02240101  RH  046%=      5-min Rain = 0
KBO1 030619Z 19007KT 22/10 A3017 RMK A01 T02240102  RH  046%=      5-min Rain = 0
KBO1 030620Z 19006KT 22/10 A3017 RMK A01 T02240102  RH  046%=      5-min Rain = 0
KBO1 030621Z 19006KT 22/10 A3017 RMK A01 T02240103  RH  046%=      5-min Rain = 0
KBO1 030622Z 19006KT 22/10 A3017 RMK A01 T02240103  RH  046%=      5-min Rain = 0
KBO1 030623Z 20005KT 23/10 A3017 RMK A01 T02250104  RH  046%=      5-min Rain = 0
KBO1 030624Z 20004KT 23/10 A3017 RMK A01 T02250104  RH  046%=      5-min Rain = 0
KBO1 030625Z 20004KT 23/10 A3017 RMK A01 T02250104  RH  046%=      5-min Rain = 0
KBO1 030626Z 20004KT 23/10 A3017 RMK A01 T02260104  RH  046%=      5-min Rain = 0
KBO1 030627Z 20004KT 23/10 A3017 RMK A01 T02250104  RH  046%=      5-min Rain = 0
KBO1 030628Z 20004KT 23/10 A3017 RMK A01 T02250104  RH  046%=      5-min Rain = 0
KBO1 030629Z 20004KT 23/10 A3017 RMK A01 T02250104  RH  046%=      5-min Rain = 0
KBO1 030630Z 20003KT 22/10 A3017 RMK A01 T02240104  RH  046%=      5-min Rain = 0
KBO1 030631Z 20003KT 22/10 A3017 RMK A01 T02230103  RH  047%=      5-min Rain = 0
KBO1 030632Z 20004KT 22/10 A3017 RMK A01 T02230104  RH  047%=      5-min Rain = 0
KBO1 030633Z 21003KT 22/10 A3017 RMK A01 T02220104  RH  047%=      5-min Rain = 0
KBO1 030634Z 21003KT 22/10 A3017 RMK A01 T02220103  RH  047%=      5-min Rain = 0
KBO1 030635Z 23002KT 22/10 A3017 RMK A01 T02210104  RH  047%=      5-min Rain = 0
KBO1 030636Z 23002KT 22/10 A3017 RMK A01 T02200104  RH  048%=      5-min Rain = 0
KBO1 030637Z 22002KT 22/10 A3017 RMK A01 T02200104  RH  048%=      5-min Rain = 0
KBO1 030638Z 22002KT 22/11 A3017 RMK A01 T02200105  RH  048%=      5-min Rain = 0
KBO1 030639Z 22003KT 22/11 A3017 RMK A01 T02200105  RH  048%=      5-min Rain = 0
KBO1 030640Z 22003KT 22/11 A3017 RMK A01 T02210105  RH  048%=      5-min Rain = 0
KBO1 030641Z 21003KT 22/11 A3017 RMK A01 T02220105  RH  048%=      5-min Rain = 0
KBO1 030642Z 22003KT 22/11 A3017 RMK A01 T02230105  RH  047%=      5-min Rain = 0
KBO1 030643Z 23002KT 22/11 A3017 RMK A01 T02230105  RH  047%=      5-min Rain = 0
KBO1 030644Z 23002KT 22/11 A3017 RMK A01 T02230105  RH  047%=      5-min Rain = 0
KBO1 030645Z 22002KT 22/11 A3016 RMK A01 T02230106  RH  047%=      5-min Rain = 0
KBO1 030646Z 24001KT 22/11 A3016 RMK A01 T02230106  RH  047%=      5-min Rain = 0
KBO1 030647Z 23001KT 22/11 A3016 RMK A01 T02230106  RH  048%=      5-min Rain = 0
KBO1 030648Z 22002KT 22/11 A3016 RMK A01 T02220107  RH  048%=      5-min Rain = 0
KBO1 030649Z 23003KT 22/11 A3016 RMK A01 T02230107  RH  048%=      5-min Rain = 0
KBO1 030650Z 20003KT 22/11 A3016 RMK A01 T02230108  RH  048%=      5-min Rain = 0
KBO1 030651Z 21002KT 22/11 A3016 RMK A01 T02240109  RH  048%=      5-min Rain = 0
KBO1 030652Z 21003KT 22/11 A3016 RMK A01 T02240108  RH  048%=      5-min Rain = 0
KBO1 030653Z 22003KT 22/11 A3016 RMK A01 T02240109  RH  048%=      5-min Rain = 0
KBO1 030654Z 23003KT 22/11 A3016 RMK A01 T02240108  RH  048%=      5-min Rain = 0
KBO1 030655Z 22003KT 22/11 A3016 RMK A01 T02240109  RH  048%=      5-min Rain = 0
KBO1 030656Z 21004KT 22/11 A3016 RMK A01 T02240110  RH  048%=      5-min Rain = 0
KBO1 030657Z 21004KT 22/11 A3016 RMK A01 T02230111  RH  049%=      5-min Rain = 0
KBO1 030658Z 20006KT 22/11 A3016 RMK A01 T02210110  RH  049%=      5-min Rain = 0
KBO1 030659Z 18010KT 22/11 A3016 RMK A01 T02200114  RH  051%=      5-min Rain = 0
KBO1 030700Z 18011KT 22/12 A3016 RMK A01 T02220116  RH  051%=      5-min Rain = 0
KBO1 030701Z 18012KT 22/12 A3016 RMK A01 T02240116  RH  050%=      5-min Rain = 0
KBO1 030702Z 18011KT 23/12 A3015 RMK A01 T02260116  RH  050%=      5-min Rain = 0
KBO1 030703Z 18012KT 23/12 A3015 RMK A01 T02260116  RH  050%=      5-min Rain = 0
KBO1 030704Z 18013KT 23/12 A3015 RMK A01 T02260116  RH  050%=      5-min Rain = 0
KBO1 030705Z 18013KT 23/12 A3015 RMK A01 T02260116  RH  050%=      5-min Rain = 0
KBO1 030706Z 18014KT 23/12 A3015 RMK A01 T02260116  RH  050%=      5-min Rain = 0
KBO1 030707Z 18013KT 23/12 A3015 RMK A01 T02260116  RH  050%=      5-min Rain = 0
KBO1 030708Z 17012KT 23/12 A3015 RMK A01 T02260116  RH  050%=      5-min Rain = 0
KBO1 030709Z 18012KT 23/12 A3015 RMK A01 T02260116  RH  050%=      5-min Rain = 0
KBO1 030710Z 17013KT 23/12 A3015 RMK A01 T02250116  RH  050%=      5-min Rain = 0
KBO1 030711Z 17013KT 23/12 A3015 RMK A01 T02250116  RH  050%=      5-min Rain = 0
KBO1 030712Z 17012KT 23/12 A3015 RMK A01 T02250115  RH  050%=      5-min Rain = 0
KBO1 030713Z 18012KT 22/12 A3015 RMK A01 T02240115  RH  050%=      5-min Rain = 0
KBO1 030714Z 18012KT 22/12 A3015 RMK A01 T02240115  RH  050%=      5-min Rain = 0
KBO1 030715Z 17012KT 22/12 A3015 RMK A01 T02230115  RH  050%=      5-min Rain = 0
KBO1 030716Z 17012KT 22/12 A3015 RMK A01 T02230115  RH  051%=      5-min Rain = 0
KBO1 030717Z 18011KT 22/12 A3015 RMK A01 T02230116  RH  051%=      5-min Rain = 0
KBO1 030718Z 17010KT 22/12 A3015 RMK A01 T02220115  RH  051%=      5-min Rain = 0
KBO1 030719Z 18010KT 22/12 A3015 RMK A01 T02210115  RH  051%=      5-min Rain = 0
KBO1 030720Z 17011KT 22/12 A3015 RMK A01 T02210115  RH  051%=      5-min Rain = 0
KBO1 030721Z 18010KT 22/12 A3015 RMK A01 T02210116  RH  051%=      5-min Rain = 0
KBO1 030722Z 18011KT 22/12 A3015 RMK A01 T02210116  RH  051%=      5-min Rain = 0
KBO1 030723Z 17010KT 22/12 A3015 RMK A01 T02200116  RH  051%=      5-min Rain = 0
KBO1 030724Z 18010KT 22/12 A3015 RMK A01 T02200116  RH  052%=      5-min Rain = 0
KBO1 030725Z 18010KT 22/12 A3015 RMK A01 T02190116  RH  052%=      5-min Rain = 0
KBO1 030726Z 17010KT 22/12 A3015 RMK A01 T02190116  RH  052%=      5-min Rain = 0
KBO1 030727Z 17011KT 22/12 A3015 RMK A01 T02190116  RH  052%=      5-min Rain = 0
KBO1 030728Z 17010KT 22/12 A3015 RMK A01 T02180115  RH  052%=      5-min Rain = 0
KBO1 030729Z 17010KT 22/12 A3015 RMK A01 T02180116  RH  052%=      5-min Rain = 0
KBO1 030730Z 17009KT 22/12 A3015 RMK A01 T02170115  RH  052%=      5-min Rain = 0
KBO1 030731Z 17010KT 22/12 A3015 RMK A01 T02170115  RH  052%=      5-min Rain = 0
KBO1 030732Z 16009KT 22/12 A3015 RMK A01 T02160115  RH  053%=      5-min Rain = 0
KBO1 030733Z 17010KT 22/12 A3014 RMK A01 T02150115  RH  053%=      5-min Rain = 0
KBO1 030734Z 17010KT 22/12 A3014 RMK A01 T02150115  RH  053%=      5-min Rain = 0
KBO1 030735Z 17011KT 21/12 A3014 RMK A01 T02140115  RH  053%=      5-min Rain = 0
KBO1 030736Z 17010KT 21/12 A3014 RMK A01 T02140115  RH  053%=      5-min Rain = 0
KBO1 030737Z 17010KT 21/12 A3014 RMK A01 T02130115  RH  053%=      5-min Rain = 0
KBO1 030738Z 17010KT 21/11 A3014 RMK A01 T02130114  RH  053%=      5-min Rain = 0
KBO1 030739Z 18010KT 21/12 A3014 RMK A01 T02130115  RH  054%=      5-min Rain = 0
KBO1 030740Z 18010KT 21/12 A3014 RMK A01 T02120115  RH  054%=      5-min Rain = 0
KBO1 030741Z 18009KT 21/12 A3014 RMK A01 T02120115  RH  054%=      5-min Rain = 0
KBO1 030742Z 17010KT 21/12 A3014 RMK A01 T02120115  RH  054%=      5-min Rain = 0
KBO1 030743Z 17009KT 21/12 A3014 RMK A01 T02120115  RH  054%=      5-min Rain = 0
KBO1 030744Z 17010KT 21/12 A3014 RMK A01 T02110115  RH  054%=      5-min Rain = 0
KBO1 030745Z 17010KT 21/12 A3014 RMK A01 T02110115  RH  054%=      5-min Rain = 0
KBO1 030746Z 17010KT 21/12 A3014 RMK A01 T02100115  RH  054%=      5-min Rain = 0
KBO1 030747Z 17010KT 21/12 A3014 RMK A01 T02100115  RH  055%=      5-min Rain = 0
KBO1 030748Z 17010KT 21/12 A3014 RMK A01 T02090115  RH  055%=      5-min Rain = 0
KBO1 030749Z 17010KT 21/12 A3014 RMK A01 T02090115  RH  055%=      5-min Rain = 0
KBO1 030750Z 17009KT 21/12 A3014 RMK A01 T02090116  RH  055%=      5-min Rain = 0
KBO1 030751Z 17010KT 21/12 A3014 RMK A01 T02090116  RH  055%=      5-min Rain = 0
KBO1 030752Z 17009KT 21/12 A3014 RMK A01 T02080115  RH  055%=      5-min Rain = 0
KBO1 030753Z 17009KT 21/12 A3014 RMK A01 T02080115  RH  055%=      5-min Rain = 0
KBO1 030754Z 17009KT 21/12 A3014 RMK A01 T02070115  RH  055%=      5-min Rain = 0
KBO1 030755Z 17009KT 21/12 A3014 RMK A01 T02070115  RH  056%=      5-min Rain = 0
KBO1 030756Z 17009KT 21/12 A3014 RMK A01 T02060115  RH  056%=      5-min Rain = 0
KBO1 030757Z 17010KT 21/12 A3014 RMK A01 T02050115  RH  056%=      5-min Rain = 0
KBO1 030758Z 17010KT 21/12 A3014 RMK A01 T02050115  RH  056%=      5-min Rain = 0
KBO1 030759Z 17010KT 21/12 A3014 RMK A01 T02050115  RH  056%=      5-min Rain = 0
KBO1 030800Z 17009KT 21/12 A3014 RMK A01 T02050115  RH  056%=      5-min Rain = 0
KBO1 030801Z 17009KT 20/12 A3014 RMK A01 T02040115  RH  057%=      5-min Rain = 0
KBO1 030802Z 17009KT 20/12 A3014 RMK A01 T02040115  RH  057%=      5-min Rain = 0
KBO1 030803Z 17009KT 20/12 A3014 RMK A01 T02030115  RH  057%=      5-min Rain = 0
KBO1 030804Z 17009KT 20/11 A3014 RMK A01 T02020114  RH  057%=      5-min Rain = 0
KBO1 030805Z 17009KT 20/11 A3014 RMK A01 T02020114  RH  057%=      5-min Rain = 0
KBO1 030806Z 17009KT 20/11 A3014 RMK A01 T02010114  RH  057%=      5-min Rain = 0
KBO1 030807Z 17009KT 20/11 A3014 RMK A01 T02010114  RH  057%=      5-min Rain = 0
KBO1 030808Z 17009KT 20/11 A3014 RMK A01 T02000114  RH  058%=      5-min Rain = 0
KBO1 030809Z 17009KT 20/11 A3014 RMK A01 T02000114  RH  058%=      5-min Rain = 0
KBO1 030810Z 17009KT 20/11 A3014 RMK A01 T02000114  RH  058%=      5-min Rain = 0
KBO1 030811Z 17009KT 20/11 A3014 RMK A01 T01990114  RH  058%=      5-min Rain = 0
KBO1 030812Z 17009KT 20/11 A3014 RMK A01 T01980114  RH  058%=      5-min Rain = 0
KBO1 030813Z 17009KT 20/11 A3013 RMK A01 T01980114  RH  058%=      5-min Rain = 0
KBO1 030814Z 17009KT 20/11 A3013 RMK A01 T01970114  RH  059%=      5-min Rain = 0
KBO1 030815Z 17009KT 20/11 A3013 RMK A01 T01970114  RH  059%=      5-min Rain = 0
KBO1 030816Z 17009KT 20/11 A3013 RMK A01 T01960114  RH  059%=      5-min Rain = 0
KBO1 030817Z 17009KT 20/11 A3013 RMK A01 T01960114  RH  059%=      5-min Rain = 0
KBO1 030818Z 17009KT 20/11 A3013 RMK A01 T01950114  RH  059%=      5-min Rain = 0
KBO1 030819Z 17009KT 20/11 A3013 RMK A01 T01950114  RH  059%=      5-min Rain = 0
KBO1 030820Z 17009KT 19/11 A3013 RMK A01 T01940114  RH  059%=      5-min Rain = 0
KBO1 030821Z 17009KT 19/11 A3013 RMK A01 T01940114  RH  060%=      5-min Rain = 0
KBO1 030822Z 17010KT 19/11 A3013 RMK A01 T01930114  RH  060%=      5-min Rain = 0
KBO1 030823Z 17009KT 19/11 A3013 RMK A01 T01930114  RH  060%=      5-min Rain = 0
KBO1 030824Z 17009KT 19/11 A3013 RMK A01 T01930114  RH  060%=      5-min Rain = 0
KBO1 030825Z 17009KT 19/11 A3013 RMK A01 T01930114  RH  060%=      5-min Rain = 0
KBO1 030826Z 17009KT 19/11 A3013 RMK A01 T01920114  RH  060%=      5-min Rain = 0
KBO1 030827Z 17008KT 19/11 A3013 RMK A01 T01920114  RH  061%=      5-min Rain = 0
KBO1 030828Z 17008KT 19/11 A3013 RMK A01 T01920114  RH  061%=      5-min Rain = 0
KBO1 030829Z 16009KT 19/11 A3013 RMK A01 T01910114  RH  061%=      5-min Rain = 0
KBO1 030830Z 17008KT 19/11 A3012 RMK A01 T01900113  RH  061%=      5-min Rain = 0
KBO1 030831Z 17008KT 19/11 A3012 RMK A01 T01900113  RH  061%=      5-min Rain = 0
KBO1 030832Z 17008KT 19/11 A3012 RMK A01 T01900114  RH  061%=      5-min Rain = 0
KBO1 030833Z 17009KT 19/11 A3012 RMK A01 T01900114  RH  061%=      5-min Rain = 0
KBO1 030834Z 17009KT 19/11 A3012 RMK A01 T01890113  RH  061%=      5-min Rain = 0
KBO1 030835Z 17009KT 19/11 A3012 RMK A01 T01890114  RH  061%=      5-min Rain = 0
KBO1 030836Z 17009KT 19/11 A3012 RMK A01 T01890114  RH  061%=      5-min Rain = 0
KBO1 030837Z 17009KT 19/11 A3012 RMK A01 T01890114  RH  061%=      5-min Rain = 0
KBO1 030838Z 17009KT 19/11 A3012 RMK A01 T01890113  RH  062%=      5-min Rain = 0
KBO1 030839Z 17009KT 19/11 A3012 RMK A01 T01890114  RH  062%=      5-min Rain = 0
KBO1 030840Z 17009KT 19/11 A3012 RMK A01 T01890114  RH  062%=      5-min Rain = 0
KBO1 030841Z 17009KT 19/11 A3012 RMK A01 T01890113  RH  062%=      5-min Rain = 0
KBO1 030842Z 17009KT 19/11 A3012 RMK A01 T01890113  RH  062%=      5-min Rain = 0
KBO1 030843Z 17009KT 19/11 A3012 RMK A01 T01890114  RH  062%=      5-min Rain = 0
KBO1 030844Z 17009KT 19/11 A3012 RMK A01 T01890114  RH  062%=      5-min Rain = 0
KBO1 030845Z 17009KT 19/11 A3012 RMK A01 T01890114  RH  062%=      5-min Rain = 0
KBO1 030846Z 17009KT 19/11 A3012 RMK A01 T01890114  RH  062%=      5-min Rain = 0
KBO1 030847Z 17008KT 19/11 A3011 RMK A01 T01890114  RH  062%=      5-min Rain = 0
KBO1 030848Z 17009KT 19/11 A3011 RMK A01 T01880114  RH  062%=      5-min Rain = 0
KBO1 030849Z 17010KT 19/11 A3011 RMK A01 T01880114  RH  062%=      5-min Rain = 0
KBO1 030850Z 17010KT 19/11 A3011 RMK A01 T01880113  RH  062%=      5-min Rain = 0
KBO1 030851Z 17010KT 19/11 A3011 RMK A01 T01880114  RH  062%=      5-min Rain = 0
KBO1 030852Z 18009KT 19/11 A3011 RMK A01 T01880114  RH  062%=      5-min Rain = 0
KBO1 030853Z 18010KT 19/11 A3011 RMK A01 T01880114  RH  062%=      5-min Rain = 0
KBO1 030854Z 18010KT 19/11 A3011 RMK A01 T01880114  RH  062%=      5-min Rain = 0
KBO1 030855Z 18010KT 19/12 A3011 RMK A01 T01880115  RH  062%=      5-min Rain = 0
KBO1 030856Z 18010KT 19/12 A3011 RMK A01 T01890115  RH  062%=      5-min Rain = 0
KBO1 030857Z 18009KT 19/12 A3011 RMK A01 T01900116  RH  062%=      5-min Rain = 0
KBO1 030858Z 18009KT 19/12 A3011 RMK A01 T01910116  RH  062%=      5-min Rain = 0
KBO1 030859Z 18009KT 19/12 A3012 RMK A01 T01910116  RH  062%=      5-min Rain = 0
KBO1 030900Z 18010KT 19/12 A3012 RMK A01 T01920116  RH  061%=      5-min Rain = 0
KBO1 030901Z 18009KT 19/12 A3012 RMK A01 T01930117  RH  061%=      5-min Rain = 0
KBO1 030902Z 18010KT 19/12 A3011 RMK A01 T01940117  RH  061%=      5-min Rain = 0
KBO1 030903Z 18010KT 19/12 A3011 RMK A01 T01940117  RH  061%=      5-min Rain = 0
KBO1 030904Z 18009KT 20/12 A3011 RMK A01 T01950117  RH  061%=      5-min Rain = 0
KBO1 030905Z 18011KT 20/12 A3011 RMK A01 T01950118  RH  061%=      5-min Rain = 0
KBO1 030906Z 18011KT 20/12 A3011 RMK A01 T01960118  RH  061%=      5-min Rain = 0
KBO1 030907Z 18011KT 20/12 A3011 RMK A01 T01970119  RH  061%=      5-min Rain = 0
KBO1 030908Z 18011KT 20/12 A3011 RMK A01 T01970118  RH  060%=      5-min Rain = 0
KBO1 030909Z 18012KT 20/12 A3011 RMK A01 T01970118  RH  060%=      5-min Rain = 0
KBO1 030910Z 18012KT 20/12 A3011 RMK A01 T01970118  RH  061%=      5-min Rain = 0
KBO1 030911Z 18011KT 20/12 A3011 RMK A01 T01960118  RH  061%=      5-min Rain = 0
KBO1 030912Z 18012KT 20/12 A3011 RMK A01 T01960118  RH  061%=      5-min Rain = 0
KBO1 030913Z 18012KT 20/12 A3011 RMK A01 T01950118  RH  061%=      5-min Rain = 0
KBO1 030914Z 18013KT 20/12 A3011 RMK A01 T01950118  RH  061%=      5-min Rain = 0
KBO1 030915Z 18013KT 20/12 A3011 RMK A01 T01950118  RH  061%=      5-min Rain = 0
KBO1 030916Z 18012KT 20/12 A3011 RMK A01 T01950118  RH  061%=      5-min Rain = 0
KBO1 030917Z 18012KT 20/12 A3011 RMK A01 T01950118  RH  061%=      5-min Rain = 0
KBO1 030918Z 18011KT 19/12 A3011 RMK A01 T01940118  RH  061%=      5-min Rain = 0
KBO1 030919Z 18011KT 19/12 A3011 RMK A01 T01930118  RH  062%=      5-min Rain = 0
KBO1 030920Z 18011KT 19/12 A3011 RMK A01 T01920118  RH  062%=      5-min Rain = 0
KBO1 030921Z 18011KT 19/12 A3011 RMK A01 T01910117  RH  062%=      5-min Rain = 0
KBO1 030922Z 18011KT 19/12 A3011 RMK A01 T01910117  RH  062%=      5-min Rain = 0
KBO1 030923Z 18011KT 19/12 A3011 RMK A01 T01900117  RH  063%=      5-min Rain = 0
KBO1 030924Z 18011KT 19/12 A3011 RMK A01 T01890117  RH  063%=      5-min Rain = 0
KBO1 030925Z 18011KT 19/12 A3011 RMK A01 T01890117  RH  063%=      5-min Rain = 0
KBO1 030926Z 18011KT 19/12 A3011 RMK A01 T01880118  RH  063%=      5-min Rain = 0
KBO1 030927Z 18011KT 19/12 A3011 RMK A01 T01880118  RH  064%=      5-min Rain = 0
KBO1 030928Z 18011KT 19/12 A3011 RMK A01 T01880118  RH  064%=      5-min Rain = 0
KBO1 030929Z 18010KT 19/12 A3011 RMK A01 T01880119  RH  064%=      5-min Rain = 0
KBO1 030930Z 18010KT 19/12 A3011 RMK A01 T01880118  RH  064%=      5-min Rain = 0
KBO1 030931Z 18009KT 19/12 A3011 RMK A01 T01880118  RH  064%=      5-min Rain = 0
KBO1 030932Z 18009KT 19/12 A3011 RMK A01 T01880118  RH  064%=      5-min Rain = 0
KBO1 030933Z 18010KT 19/12 A3011 RMK A01 T01870118  RH  064%=      5-min Rain = 0
KBO1 030934Z 18010KT 19/12 A3011 RMK A01 T01860118  RH  064%=      5-min Rain = 0
KBO1 030935Z 18009KT 19/12 A3012 RMK A01 T01860119  RH  065%=      5-min Rain = 0
KBO1 030936Z 18009KT 19/12 A3012 RMK A01 T01860119  RH  065%=      5-min Rain = 0
KBO1 030937Z 18009KT 19/12 A3012 RMK A01 T01860119  RH  065%=      5-min Rain = 0
KBO1 030938Z 18009KT 19/12 A3012 RMK A01 T01860119  RH  065%=      5-min Rain = 0
KBO1 030939Z 18009KT 19/12 A3012 RMK A01 T01850119  RH  065%=      5-min Rain = 0
KBO1 030940Z 19009KT 19/12 A3012 RMK A01 T01850119  RH  065%=      5-min Rain = 0
KBO1 030941Z 18009KT 19/12 A3012 RMK A01 T01850119  RH  065%=      5-min Rain = 0
KBO1 030942Z 19009KT 18/12 A3012 RMK A01 T01840119  RH  066%=      5-min Rain = 0
KBO1 030943Z 19009KT 18/12 A3012 RMK A01 T01840119  RH  066%=      5-min Rain = 0
KBO1 030944Z 19009KT 18/12 A3012 RMK A01 T01840120  RH  066%=      5-min Rain = 0
KBO1 030945Z 19009KT 18/12 A3012 RMK A01 T01830119  RH  066%=      5-min Rain = 0
KBO1 030946Z 19009KT 18/12 A3012 RMK A01 T01830120  RH  067%=      5-min Rain = 0
KBO1 030947Z 18009KT 18/12 A3012 RMK A01 T01830120  RH  067%=      5-min Rain = 0
KBO1 030948Z 18009KT 18/12 A3012 RMK A01 T01830120  RH  067%=      5-min Rain = 0
KBO1 030949Z 18008KT 18/12 A3012 RMK A01 T01830120  RH  067%=      5-min Rain = 0
KBO1 030950Z 18008KT 18/12 A3012 RMK A01 T01830120  RH  067%=      5-min Rain = 0
KBO1 030951Z 18008KT 18/12 A3012 RMK A01 T01820120  RH  067%=      5-min Rain = 0
KBO1 030952Z 18008KT 18/12 A3012 RMK A01 T01820120  RH  067%=      5-min Rain = 0
KBO1 030953Z 18008KT 18/12 A3012 RMK A01 T01810120  RH  067%=      5-min Rain = 0
KBO1 030954Z 18008KT 18/12 A3012 RMK A01 T01810120  RH  067%=      5-min Rain = 0
KBO1 030955Z 18008KT 18/12 A3012 RMK A01 T01810120  RH  068%=      5-min Rain = 0
KBO1 030956Z 18008KT 18/12 A3012 RMK A01 T01800119  RH  068%=      5-min Rain = 0
KBO1 030957Z 18007KT 18/12 A3012 RMK A01 T01790119  RH  068%=      5-min Rain = 0
KBO1 030958Z 18008KT 18/12 A3012 RMK A01 T01790119  RH  068%=      5-min Rain = 0
KBO1 030959Z 18008KT 18/12 A3012 RMK A01 T01780119  RH  068%=      5-min Rain = 0
KBO1 031000Z 18008KT 18/12 A3012 RMK A01 T01770119  RH  069%=      5-min Rain = 0
KBO1 031001Z 18008KT 18/12 A3012 RMK A01 T01760119  RH  069%=      5-min Rain = 0
KBO1 031002Z 18008KT 18/12 A3012 RMK A01 T01760119  RH  069%=      5-min Rain = 0
KBO1 031003Z 19008KT 18/12 A3012 RMK A01 T01750118  RH  069%=      5-min Rain = 0
KBO1 031004Z 19008KT 18/12 A3012 RMK A01 T01750118  RH  070%=      5-min Rain = 0
KBO1 031005Z 19008KT 17/12 A3012 RMK A01 T01740118  RH  070%=      5-min Rain = 0
KBO1 031006Z 19008KT 17/12 A3012 RMK A01 T01740118  RH  070%=      5-min Rain = 0
KBO1 031007Z 19008KT 17/12 A3012 RMK A01 T01730118  RH  070%=      5-min Rain = 0
KBO1 031008Z 19008KT 17/12 A3012 RMK A01 T01730118  RH  070%=      5-min Rain = 0
KBO1 031009Z 19008KT 17/12 A3012 RMK A01 T01730118  RH  070%=      5-min Rain = 0
KBO1 031010Z 19008KT 17/12 A3012 RMK A01 T01720118  RH  070%=      5-min Rain = 0
KBO1 031011Z 18007KT 17/12 A3012 RMK A01 T01720118  RH  071%=      5-min Rain = 0
KBO1 031012Z 18008KT 17/12 A3012 RMK A01 T01710118  RH  071%=      5-min Rain = 0
KBO1 031013Z 18008KT 17/12 A3012 RMK A01 T01700118  RH  071%=      5-min Rain = 0
KBO1 031014Z 19007KT 17/12 A3012 RMK A01 T01700118  RH  071%=      5-min Rain = 0
KBO1 031015Z 19007KT 17/12 A3012 RMK A01 T01700118  RH  071%=      5-min Rain = 0
KBO1 031016Z 19007KT 17/12 A3012 RMK A01 T01700118  RH  071%=      5-min Rain = 0
KBO1 031017Z 19006KT 17/12 A3012 RMK A01 T01700118  RH  071%=      5-min Rain = 0
KBO1 031018Z 19007KT 17/12 A3012 RMK A01 T01700118  RH  071%=      5-min Rain = 0
KBO1 031019Z 19007KT 17/12 A3012 RMK A01 T01700119  RH  072%=      5-min Rain = 0
KBO1 031020Z 19007KT 17/12 A3012 RMK A01 T01700118  RH  072%=      5-min Rain = 0
KBO1 031021Z 18006KT 17/12 A3012 RMK A01 T01700118  RH  072%=      5-min Rain = 0
KBO1 031022Z 19007KT 17/12 A3012 RMK A01 T01690119  RH  072%=      5-min Rain = 0
KBO1 031023Z 19007KT 17/12 A3012 RMK A01 T01690118  RH  072%=      5-min Rain = 0
KBO1 031024Z 19007KT 17/12 A3012 RMK A01 T01680118  RH  072%=      5-min Rain = 0
KBO1 031025Z 19007KT 17/12 A3012 RMK A01 T01680118  RH  072%=      5-min Rain = 0
KBO1 031026Z 19006KT 17/12 A3012 RMK A01 T01680118  RH  072%=      5-min Rain = 0
KBO1 031027Z 19006KT 17/12 A3012 RMK A01 T01670118  RH  073%=      5-min Rain = 0
KBO1 031028Z 19006KT 17/12 A3012 RMK A01 T01670118  RH  073%=      5-min Rain = 0
KBO1 031029Z 20005KT 17/12 A3013 RMK A01 T01660117  RH  073%=      5-min Rain = 0
KBO1 031030Z 20005KT 17/12 A3013 RMK A01 T01650117  RH  073%=      5-min Rain = 0
KBO1 031031Z 20005KT 17/12 A3013 RMK A01 T01650117  RH  073%=      5-min Rain = 0
KBO1 031032Z 20004KT 17/12 A3013 RMK A01 T01650117  RH  074%=      5-min Rain = 0
KBO1 031033Z 20005KT 16/12 A3013 RMK A01 T01630116  RH  074%=      5-min Rain = 0
KBO1 031034Z 20005KT 16/12 A3013 RMK A01 T01630116  RH  074%=      5-min Rain = 0
KBO1 031035Z 20005KT 16/12 A3013 RMK A01 T01620116  RH  074%=      5-min Rain = 0
KBO1 031036Z 20005KT 16/12 A3013 RMK A01 T01630117  RH  074%=      5-min Rain = 0
KBO1 031037Z 20005KT 16/12 A3013 RMK A01 T01630117  RH  074%=      5-min Rain = 0
KBO1 031038Z 20005KT 16/12 A3013 RMK A01 T01630117  RH  074%=      5-min Rain = 0
KBO1 031039Z 21006KT 16/12 A3013 RMK A01 T01630116  RH  074%=      5-min Rain = 0
KBO1 031040Z 21006KT 16/12 A3013 RMK A01 T01630116  RH  074%=      5-min Rain = 0
KBO1 031041Z 20006KT 16/12 A3013 RMK A01 T01620115  RH  074%=      5-min Rain = 0
KBO1 031042Z 20006KT 16/11 A3012 RMK A01 T01610114  RH  074%=      5-min Rain = 0
KBO1 031043Z 19006KT 16/11 A3012 RMK A01 T01610114  RH  074%=      5-min Rain = 0
KBO1 031044Z 20006KT 16/12 A3012 RMK A01 T01600115  RH  075%=      5-min Rain = 0
KBO1 031045Z 19006KT 16/12 A3012 RMK A01 T01600115  RH  075%=      5-min Rain = 0
KBO1 031046Z 19006KT 16/12 A3012 RMK A01 T01600115  RH  075%=      5-min Rain = 0
KBO1 031047Z 19006KT 16/12 A3012 RMK A01 T01600115  RH  075%=      5-min Rain = 0
KBO1 031048Z 19007KT 16/12 A3012 RMK A01 T01590115  RH  075%=      5-min Rain = 0
KBO1 031049Z 19007KT 16/12 A3012 RMK A01 T01590115  RH  075%=      5-min Rain = 0
KBO1 031050Z 19006KT 16/12 A3012 RMK A01 T01580115  RH  075%=      5-min Rain = 0
KBO1 031051Z 19007KT 16/12 A3012 RMK A01 T01570115  RH  076%=      5-min Rain = 0
KBO1 031052Z 19007KT 16/12 A3012 RMK A01 T01570115  RH  076%=      5-min Rain = 0
KBO1 031053Z 19007KT 16/12 A3012 RMK A01 T01570115  RH  076%=      5-min Rain = 0
KBO1 031054Z 19007KT 16/12 A3012 RMK A01 T01570115  RH  076%=      5-min Rain = 0
KBO1 031055Z 19007KT 16/12 A3012 RMK A01 T01560115  RH  076%=      5-min Rain = 0
KBO1 031056Z 18007KT 16/12 A3012 RMK A01 T01570115  RH  076%=      5-min Rain = 0
KBO1 031057Z 18007KT 16/12 A3012 RMK A01 T01560115  RH  076%=      5-min Rain = 0
KBO1 031058Z 18008KT 16/12 A3012 RMK A01 T01560115  RH  077%=      5-min Rain = 0
KBO1 031059Z 18008KT 16/12 A3012 RMK A01 T01560115  RH  077%=      5-min Rain = 0
KBO1 031100Z 18008KT 16/12 A3012 RMK A01 T01560115  RH  077%=      5-min Rain = 0
KBO1 031101Z 18008KT 16/12 A3012 RMK A01 T01550115  RH  077%=      5-min Rain = 0
KBO1 031102Z 18008KT 16/12 A3012 RMK A01 T01550115  RH  077%=      5-min Rain = 0
KBO1 031103Z 18008KT 16/12 A3012 RMK A01 T01550116  RH  077%=      5-min Rain = 0
KBO1 031104Z 18008KT 16/12 A3012 RMK A01 T01560116  RH  077%=      5-min Rain = 0
KBO1 031105Z 18008KT 16/12 A3012 RMK A01 T01570118  RH  077%=      5-min Rain = 0
KBO1 031106Z 18008KT 16/12 A3012 RMK A01 T01580118  RH  077%=      5-min Rain = 0
KBO1 031107Z 18008KT 16/12 A3012 RMK A01 T01590119  RH  077%=      5-min Rain = 0
KBO1 031108Z 18008KT 16/12 A3012 RMK A01 T01610120  RH  076%=      5-min Rain = 0
KBO1 031109Z 18008KT 16/12 A3012 RMK A01 T01620120  RH  076%=      5-min Rain = 0
KBO1 031110Z 18007KT 16/12 A3012 RMK A01 T01620120  RH  076%=      5-min Rain = 0
KBO1 031111Z 18007KT 16/12 A3012 RMK A01 T01620119  RH  076%=      5-min Rain = 0
KBO1 031112Z 17007KT 16/12 A3012 RMK A01 T01620119  RH  076%=      5-min Rain = 0
KBO1 031113Z 17007KT 16/12 A3012 RMK A01 T01610119  RH  076%=      5-min Rain = 0
KBO1 031114Z 17007KT 16/12 A3012 RMK A01 T01600117  RH  076%=      5-min Rain = 0
KBO1 031115Z 17007KT 16/12 A3012 RMK A01 T01580116  RH  076%=      5-min Rain = 0
KBO1 031116Z 17007KT 16/12 A3012 RMK A01 T01570116  RH  077%=      5-min Rain = 0
KBO1 031117Z 17007KT 16/12 A3012 RMK A01 T01560116  RH  077%=      5-min Rain = 0
KBO1 031118Z 17007KT 16/12 A3012 RMK A01 T01560117  RH  077%=      5-min Rain = 0
KBO1 031119Z 17007KT 16/12 A3012 RMK A01 T01560117  RH  078%=      5-min Rain = 0
KBO1 031120Z 17007KT 16/12 A3012 RMK A01 T01560117  RH  078%=      5-min Rain = 0
KBO1 031121Z 17007KT 16/12 A3012 RMK A01 T01560117  RH  077%=      5-min Rain = 0
KBO1 031122Z 17007KT 16/12 A3012 RMK A01 T01550116  RH  077%=      5-min Rain = 0
KBO1 031123Z 17008KT 16/12 A3012 RMK A01 T01550116  RH  078%=      5-min Rain = 0
KBO1 031124Z 18008KT 15/12 A3012 RMK A01 T01540116  RH  078%=      5-min Rain = 0
KBO1 031125Z 18008KT 15/12 A3012 RMK A01 T01540117  RH  078%=      5-min Rain = 0
KBO1 031126Z 18008KT 15/12 A3012 RMK A01 T01540116  RH  078%=      5-min Rain = 0
KBO1 031127Z 18008KT 15/12 A3012 RMK A01 T01530116  RH  078%=      5-min Rain = 0
KBO1 031128Z 18009KT 15/12 A3012 RMK A01 T01530116  RH  079%=      5-min Rain = 0
KBO1 031129Z 18009KT 15/12 A3012 RMK A01 T01530116  RH  079%=      5-min Rain = 0
KBO1 031130Z 18009KT 15/12 A3012 RMK A01 T01530117  RH  079%=      5-min Rain = 0
KBO1 031131Z 18009KT 15/12 A3012 RMK A01 T01530117  RH  079%=      5-min Rain = 0
KBO1 031132Z 18009KT 15/12 A3012 RMK A01 T01530117  RH  079%=      5-min Rain = 0
KBO1 031133Z 18009KT 15/12 A3012 RMK A01 T01540118  RH  079%=      5-min Rain = 0
KBO1 031134Z 18009KT 16/12 A3012 RMK A01 T01550118  RH  079%=      5-min Rain = 0
KBO1 031135Z 18008KT 16/12 A3012 RMK A01 T01550118  RH  079%=      5-min Rain = 0
KBO1 031136Z 18008KT 16/12 A3012 RMK A01 T01550118  RH  079%=      5-min Rain = 0
KBO1 031137Z 18008KT 16/12 A3012 RMK A01 T01550118  RH  079%=      5-min Rain = 0
KBO1 031138Z 19008KT 16/12 A3012 RMK A01 T01550118  RH  079%=      5-min Rain = 0
KBO1 031139Z 19008KT 16/12 A3012 RMK A01 T01550118  RH  079%=      5-min Rain = 0
KBO1 031140Z 19008KT 16/12 A3012 RMK A01 T01550118  RH  078%=      5-min Rain = 0
KBO1 031141Z 19008KT 16/12 A3012 RMK A01 T01550118  RH  078%=      5-min Rain = 0
KBO1 031142Z 19009KT 16/12 A3012 RMK A01 T01550118  RH  079%=      5-min Rain = 0
KBO1 031143Z 19009KT 16/12 A3012 RMK A01 T01550119  RH  079%=      5-min Rain = 0
KBO1 031144Z 19009KT 16/12 A3012 RMK A01 T01550119  RH  079%=      5-min Rain = 0
KBO1 031145Z 19010KT 16/12 A3012 RMK A01 T01550119  RH  079%=      5-min Rain = 0
KBO1 031146Z 19010KT 15/12 A3012 RMK A01 T01540119  RH  079%=      5-min Rain = 0
KBO1 031147Z 19010KT 16/12 A3012 RMK A01 T01550120  RH  079%=      5-min Rain = 0
KBO1 031148Z 18009KT 16/12 A3012 RMK A01 T01550120  RH  079%=      5-min Rain = 0
KBO1 031149Z 19009KT 16/12 A3012 RMK A01 T01560120  RH  079%=      5-min Rain = 0
KBO1 031150Z 19008KT 16/12 A3012 RMK A01 T01560120  RH  079%=      5-min Rain = 0
KBO1 031151Z 19008KT 16/12 A3012 RMK A01 T01570120  RH  079%=      5-min Rain = 0
KBO1 031152Z 19007KT 16/12 A3012 RMK A01 T01570120  RH  079%=      5-min Rain = 0
KBO1 031153Z 20007KT 16/12 A3012 RMK A01 T01570120  RH  078%=      5-min Rain = 0
KBO1 031154Z 20006KT 16/12 A3012 RMK A01 T01580121  RH  078%=      5-min Rain = 0
KBO1 031155Z 20006KT 16/12 A3012 RMK A01 T01590120  RH  078%=      5-min Rain = 0
KBO1 031156Z 20006KT 16/12 A3012 RMK A01 T01590121  RH  078%=      5-min Rain = 0
KBO1 031157Z 20007KT 16/12 A3012 RMK A01 T01600121  RH  078%=      5-min Rain = 0
KBO1 031158Z 20007KT 16/12 A3012 RMK A01 T01600120  RH  078%=      5-min Rain = 0
KBO1 031159Z 20007KT 16/12 A3012 RMK A01 T01600121  RH  078%=      5-min Rain = 0
KBO1 031200Z 20007KT 16/12 A3012 RMK A01 T01590120  RH  078%=      5-min Rain = 0
KBO1 031201Z 20007KT 16/12 A3012 RMK A01 T01590121  RH  078%=      5-min Rain = 0
KBO1 031202Z 19008KT 16/12 A3012 RMK A01 T01580120  RH  078%=      5-min Rain = 0
KBO1 031203Z 20008KT 16/12 A3012 RMK A01 T01580121  RH  078%=      5-min Rain = 0
KBO1 031204Z 20008KT 16/12 A3012 RMK A01 T01580121  RH  078%=      5-min Rain = 0
KBO1 031205Z 20008KT 16/12 A3012 RMK A01 T01590121  RH  078%=      5-min Rain = 0
KBO1 031206Z 20007KT 16/12 A3012 RMK A01 T01590121  RH  078%=      5-min Rain = 0
KBO1 031207Z 20007KT 16/12 A3012 RMK A01 T01600121  RH  078%=      5-min Rain = 0
KBO1 031208Z 21007KT 16/12 A3012 RMK A01 T01600121  RH  078%=      5-min Rain = 0
KBO1 031209Z 21007KT 16/12 A3012 RMK A01 T01600121  RH  077%=      5-min Rain = 0
KBO1 031210Z 21007KT 16/12 A3012 RMK A01 T01610121  RH  077%=      5-min Rain = 0
KBO1 031211Z 21007KT 16/12 A3012 RMK A01 T01610121  RH  077%=      5-min Rain = 0
KBO1 031212Z 21006KT 16/12 A3012 RMK A01 T01610121  RH  077%=      5-min Rain = 0
KBO1 031213Z 22006KT 16/12 A3012 RMK A01 T01610121  RH  077%=      5-min Rain = 0
KBO1 031214Z 23006KT 16/12 A3012 RMK A01 T01610121  RH  077%=      5-min Rain = 0
KBO1 031215Z 23006KT 16/12 A3012 RMK A01 T01620121  RH  077%=      5-min Rain = 0
KBO1 031216Z 23006KT 16/12 A3012 RMK A01 T01610120  RH  077%=      5-min Rain = 0
KBO1 031217Z 23006KT 16/12 A3012 RMK A01 T01620120  RH  076%=      5-min Rain = 0
KBO1 031218Z 24005KT 16/12 A3012 RMK A01 T01620120  RH  076%=      5-min Rain = 0
KBO1 031219Z 24005KT 16/12 A3012 RMK A01 T01630121  RH  076%=      5-min Rain = 0
KBO1 031220Z 24005KT 16/12 A3013 RMK A01 T01630121  RH  076%=      5-min Rain = 0
KBO1 031221Z 23005KT 16/12 A3013 RMK A01 T01640121  RH  076%=      5-min Rain = 0
KBO1 031222Z 24004KT 16/12 A3013 RMK A01 T01640121  RH  075%=      5-min Rain = 0
KBO1 031223Z 25005KT 16/12 A3013 RMK A01 T01640121  RH  075%=      5-min Rain = 0
KBO1 031224Z 24005KT 17/12 A3013 RMK A01 T01650121  RH  075%=      5-min Rain = 0
KBO1 031225Z 24005KT 17/12 A3013 RMK A01 T01650121  RH  075%=      5-min Rain = 0
KBO1 031226Z 24005KT 17/12 A3013 RMK A01 T01650121  RH  075%=      5-min Rain = 0
KBO1 031227Z 24006KT 17/12 A3013 RMK A01 T01660121  RH  075%=      5-min Rain = 0
KBO1 031228Z 24005KT 17/12 A3013 RMK A01 T01670122  RH  075%=      5-min Rain = 0
KBO1 031229Z 24005KT 17/12 A3013 RMK A01 T01680122  RH  074%=      5-min Rain = 0
KBO1 031230Z 24005KT 17/12 A3013 RMK A01 T01690123  RH  074%=      5-min Rain = 0
KBO1 031231Z 24005KT 17/12 A3013 RMK A01 T01710124  RH  074%=      5-min Rain = 0
KBO1 031232Z 25005KT 17/12 A3013 RMK A01 T01720124  RH  073%=      5-min Rain = 0
KBO1 031233Z 25005KT 17/12 A3013 RMK A01 T01740124  RH  073%=      5-min Rain = 0
KBO1 031234Z 25006KT 18/12 A3013 RMK A01 T01750124  RH  072%=      5-min Rain = 0
KBO1 031235Z 25005KT 18/13 A3013 RMK A01 T01760125  RH  072%=      5-min Rain = 0
KBO1 031236Z 25006KT 18/13 A3013 RMK A01 T01770125  RH  071%=      5-min Rain = 0
KBO1 031237Z 25005KT 18/12 A3013 RMK A01 T01780124  RH  071%=      5-min Rain = 0
KBO1 031238Z 25004KT 18/13 A3014 RMK A01 T01780125  RH  071%=      5-min Rain = 0
KBO1 031239Z 26004KT 18/13 A3014 RMK A01 T01790125  RH  071%=      5-min Rain = 0
KBO1 031240Z 26004KT 18/13 A3014 RMK A01 T01800125  RH  070%=      5-min Rain = 0
KBO1 031241Z 26004KT 18/13 A3014 RMK A01 T01800125  RH  070%=      5-min Rain = 0
KBO1 031242Z 25004KT 18/13 A3014 RMK A01 T01810125  RH  070%=      5-min Rain = 0
KBO1 031243Z 25004KT 18/13 A3014 RMK A01 T01810125  RH  070%=      5-min Rain = 0
KBO1 031244Z 25005KT 18/12 A3014 RMK A01 T01810124  RH  069%=      5-min Rain = 0
KBO1 031245Z 25005KT 18/12 A3014 RMK A01 T01810124  RH  069%=      5-min Rain = 0
KBO1 031246Z 25004KT 18/12 A3014 RMK A01 T01810124  RH  069%=      5-min Rain = 0
KBO1 031247Z 25004KT 18/13 A3014 RMK A01 T01820125  RH  069%=      5-min Rain = 0
KBO1 031248Z 24004KT 18/12 A3014 RMK A01 T01820124  RH  069%=      5-min Rain = 0
KBO1 031249Z 24004KT 18/13 A3014 RMK A01 T01830125  RH  069%=      5-min Rain = 0
KBO1 031250Z 24004KT 18/13 A3014 RMK A01 T01840125  RH  068%=      5-min Rain = 0
KBO1 031251Z 24004KT 19/13 A3014 RMK A01 T01850125  RH  068%=      5-min Rain = 0
KBO1 031252Z 24003KT 19/13 A3014 RMK A01 T01850125  RH  068%=      5-min Rain = 0
KBO1 031253Z 24003KT 19/13 A3014 RMK A01 T01860125  RH  068%=      5-min Rain = 0
KBO1 031254Z 24004KT 19/13 A3014 RMK A01 T01870126  RH  068%=      5-min Rain = 0
KBO1 031255Z 24005KT 19/13 A3014 RMK A01 T01880126  RH  067%=      5-min Rain = 0
KBO1 031256Z 25005KT 19/13 A3014 RMK A01 T01890126  RH  067%=      5-min Rain = 0
KBO1 031257Z 24005KT 19/13 A3014 RMK A01 T01900125  RH  066%=      5-min Rain = 0
KBO1 031258Z 24005KT 19/13 A3014 RMK A01 T01900126  RH  066%=      5-min Rain = 0
KBO1 031259Z 24005KT 19/13 A3014 RMK A01 T01910126  RH  066%=      5-min Rain = 0
KBO1 031300Z 24005KT 19/13 A3014 RMK A01 T01920126  RH  066%=      5-min Rain = 0
KBO1 031301Z 24005KT 19/13 A3014 RMK A01 T01930126  RH  065%=      5-min Rain = 0
KBO1 031302Z 24005KT 19/13 A3014 RMK A01 T01940126  RH  065%=      5-min Rain = 0
KBO1 031303Z 23004KT 20/13 A3014 RMK A01 T01950126  RH  065%=      5-min Rain = 0
KBO1 031304Z 23004KT 20/13 A3014 RMK A01 T01950126  RH  064%=      5-min Rain = 0
KBO1 031305Z 23004KT 20/13 A3014 RMK A01 T01970127  RH  064%=      5-min Rain = 0
KBO1 031306Z 23004KT 20/13 A3014 RMK A01 T01980127  RH  063%=      5-min Rain = 0
KBO1 031307Z 23004KT 20/13 A3014 RMK A01 T01990126  RH  063%=      5-min Rain = 0
KBO1 031308Z 23004KT 20/13 A3014 RMK A01 T01990127  RH  063%=      5-min Rain = 0
KBO1 031309Z 23004KT 20/13 A3014 RMK A01 T01990127  RH  063%=      5-min Rain = 0
KBO1 031310Z 23004KT 20/13 A3014 RMK A01 T02000127  RH  063%=      5-min Rain = 0
KBO1 031311Z 23004KT 20/13 A3014 RMK A01 T02000126  RH  062%=      5-min Rain = 0
KBO1 031312Z 22004KT 20/13 A3014 RMK A01 T02010126  RH  062%=      5-min Rain = 0
KBO1 031313Z 22005KT 20/13 A3014 RMK A01 T02010126  RH  062%=      5-min Rain = 0
KBO1 031314Z 23005KT 20/13 A3014 RMK A01 T02020126  RH  062%=      5-min Rain = 0
KBO1 031315Z 23005KT 20/13 A3014 RMK A01 T02020125  RH  061%=      5-min Rain = 0
KBO1 031316Z 22005KT 20/13 A3014 RMK A01 T02030126  RH  061%=      5-min Rain = 0
KBO1 031317Z 23005KT 20/13 A3014 RMK A01 T02040126  RH  061%=      5-min Rain = 0
KBO1 031318Z 22005KT 20/13 A3014 RMK A01 T02040126  RH  061%=      5-min Rain = 0
KBO1 031319Z 22006KT 21/13 A3014 RMK A01 T02050126  RH  061%=      5-min Rain = 0
KBO1 031320Z 23004KT 21/13 A3014 RMK A01 T02050126  RH  060%=      5-min Rain = 0
KBO1 031321Z 22005KT 21/13 A3014 RMK A01 T02060126  RH  060%=      5-min Rain = 0
KBO1 031322Z 21005KT 21/13 A3014 RMK A01 T02070126  RH  060%=      5-min Rain = 0
KBO1 031323Z 22005KT 21/13 A3014 RMK A01 T02070126  RH  060%=      5-min Rain = 0
KBO1 031324Z 21005KT 21/13 A3014 RMK A01 T02070126  RH  060%=      5-min Rain = 0
KBO1 031325Z 22005KT 21/13 A3014 RMK A01 T02080127  RH  060%=      5-min Rain = 0
KBO1 031326Z 23004KT 21/13 A3014 RMK A01 T02090126  RH  059%=      5-min Rain = 0
KBO1 031327Z 23004KT 21/13 A3014 RMK A01 T02100126  RH  059%=      5-min Rain = 0
KBO1 031328Z 22004KT 21/13 A3014 RMK A01 T02110127  RH  059%=      5-min Rain = 0
KBO1 031329Z 22004KT 21/13 A3014 RMK A01 T02120127  RH  058%=      5-min Rain = 0
KBO1 031330Z 22004KT 21/13 A3014 RMK A01 T02130127  RH  058%=      5-min Rain = 0
KBO1 031331Z 23004KT 21/13 A3014 RMK A01 T02140127  RH  057%=      5-min Rain = 0
KBO1 031332Z 22003KT 22/13 A3014 RMK A01 T02150127  RH  057%=      5-min Rain = 0
KBO1 031333Z 23003KT 22/13 A3014 RMK A01 T02150128  RH  057%=      5-min Rain = 0
KBO1 031334Z 23004KT 22/13 A3014 RMK A01 T02160128  RH  057%=      5-min Rain = 0
KBO1 031335Z 25003KT 22/13 A3014 RMK A01 T02170127  RH  056%=      5-min Rain = 0
KBO1 031336Z 24002KT 22/13 A3014 RMK A01 T02180128  RH  057%=      5-min Rain = 0
KBO1 031337Z 26004KT 22/13 A3014 RMK A01 T02200128  RH  056%=      5-min Rain = 0
KBO1 031338Z 26004KT 22/13 A3014 RMK A01 T02210128  RH  055%=      5-min Rain = 0
KBO1 031339Z 25003KT 22/13 A3014 RMK A01 T02220128  RH  055%=      5-min Rain = 0
KBO1 031340Z 25002KT 22/13 A3014 RMK A01 T02220128  RH  055%=      5-min Rain = 0
KBO1 031341Z 28003KT 22/13 A3014 RMK A01 T02220128  RH  055%=      5-min Rain = 0
KBO1 031342Z 28003KT 22/13 A3014 RMK A01 T02230128  RH  055%=      5-min Rain = 0
KBO1 031343Z 29002KT 23/13 A3014 RMK A01 T02250127  RH  054%=      5-min Rain = 0
KBO1 031344Z 28002KT 23/13 A3014 RMK A01 T02250128  RH  054%=      5-min Rain = 0
KBO1 031345Z 27002KT 23/13 A3014 RMK A01 T02270128  RH  054%=      5-min Rain = 0
KBO1 031346Z 28003KT 23/13 A3014 RMK A01 T02280127  RH  053%=      5-min Rain = 0
KBO1 031347Z 28003KT 23/13 A3014 RMK A01 T02280128  RH  053%=      5-min Rain = 0
KBO1 031348Z 29003KT 23/13 A3014 RMK A01 T02290129  RH  053%=      5-min Rain = 0
KBO1 031349Z 28003KT 23/13 A3014 RMK A01 T02290128  RH  053%=      5-min Rain = 0
KBO1 031350Z 29002KT 23/13 A3014 RMK A01 T02300129  RH  053%=      5-min Rain = 0
KBO1 031351Z 30004KT 23/13 A3014 RMK A01 T02320129  RH  052%=      5-min Rain = 0
KBO1 031352Z 30005KT 23/13 A3014 RMK A01 T02330128  RH  052%=      5-min Rain = 0
KBO1 031353Z 31004KT 24/13 A3014 RMK A01 T02350128  RH  051%=      5-min Rain = 0
KBO1 031354Z 32004KT 24/13 A3014 RMK A01 T02370128  RH  050%=      5-min Rain = 0
KBO1 031355Z 31004KT 24/13 A3014 RMK A01 T02380130  RH  051%=      5-min Rain = 0
KBO1 031356Z 32006KT 24/13 A3014 RMK A01 T02400126  RH  049%=      5-min Rain = 0
KBO1 031357Z 31005KT 24/12 A3014 RMK A01 T02410123  RH  048%=      5-min Rain = 0
KBO1 031358Z 31004KT 24/13 A3014 RMK A01 T02410125  RH  048%=      5-min Rain = 0
KBO1 031359Z 33005KT 24/12 A3014 RMK A01 T02430124  RH  047%=      5-min Rain = 0
KBO1 031400Z 34005KT 24/12 A3014 RMK A01 T02430124  RH  047%=      5-min Rain = 0
KBO1 031401Z 34006KT 25/13 A3014 RMK A01 T02460125  RH  047%=      5-min Rain = 0
KBO1 031402Z 33005KT 25/12 A3014 RMK A01 T02480123  RH  046%=      5-min Rain = 0
KBO1 031403Z 32006KT 25/12 A3014 RMK A01 T02490123  RH  045%=      5-min Rain = 0
KBO1 031404Z 33005KT 25/12 A3014 RMK A01 T02480122  RH  045%=      5-min Rain = 0
KBO1 031405Z 33007KT 25/12 A3014 RMK A01 T02480123  RH  046%=      5-min Rain = 0
KBO1 031406Z 33007KT 25/12 A3014 RMK A01 T02470121  RH  045%=      5-min Rain = 0
KBO1 031407Z 34006KT 25/12 A3014 RMK A01 T02460121  RH  046%=      5-min Rain = 0
KBO1 031408Z 34005KT 25/12 A3014 RMK A01 T02460121  RH  046%=      5-min Rain = 0
KBO1 031409Z 32006KT 25/12 A3014 RMK A01 T02450122  RH  046%=      5-min Rain = 0
KBO1 031410Z 32006KT 25/12 A3014 RMK A01 T02470122  RH  046%=      5-min Rain = 0
KBO1 031411Z 32003KT 25/12 A3014 RMK A01 T02470121  RH  045%=      5-min Rain = 0
KBO1 031412Z 33006KT 25/12 A3014 RMK A01 T02490123  RH  045%=      5-min Rain = 0
KBO1 031413Z 33006KT 25/12 A3014 RMK A01 T02500122  RH  045%=      5-min Rain = 0
KBO1 031414Z 33006KT 25/12 A3014 RMK A01 T02510123  RH  045%=      5-min Rain = 0
KBO1 031415Z 34006KT 25/12 A3014 RMK A01 T02510122  RH  044%=      5-min Rain = 0
KBO1 031416Z 33006KT 25/12 A3014 RMK A01 T02500123  RH  045%=      5-min Rain = 0
KBO1 031417Z 32005KT 25/12 A3014 RMK A01 T02500122  RH  045%=      5-min Rain = 0
KBO1 031418Z 33006KT 25/12 A3014 RMK A01 T02510123  RH  045%=      5-min Rain = 0
KBO1 031419Z 33006KT 25/12 A3014 RMK A01 T02520120  RH  044%=      5-min Rain = 0
KBO1 031420Z 33005KT 25/12 A3014 RMK A01 T02510120  RH  044%=      5-min Rain = 0
KBO1 031421Z 32005KT 25/12 A3014 RMK A01 T02510120  RH  044%=      5-min Rain = 0
KBO1 031422Z 32006KT 25/12 A3014 RMK A01 T02520122  RH  044%=      5-min Rain = 0
KBO1 031423Z 34006KT 25/12 A3014 RMK A01 T02520121  RH  044%=      5-min Rain = 0
KBO1 031424Z 35006KT 25/12 A3014 RMK A01 T02530120  RH  043%=      5-min Rain = 0
KBO1 031425Z 33006KT 26/12 A3014 RMK A01 T02550118  RH  042%=      5-min Rain = 0
KBO1 031426Z 34006KT 25/12 A3014 RMK A01 T02540120  RH  043%=      5-min Rain = 0
KBO1 031427Z 34007KT 25/12 A3014 RMK A01 T02540120  RH  043%=      5-min Rain = 0
KBO1 031428Z 33006KT 25/12 A3014 RMK A01 T02530118  RH  043%=      5-min Rain = 0
KBO1 031429Z 33005KT 25/12 A3014 RMK A01 T02520120  RH  044%=      5-min Rain = 0
KBO1 031430Z 32005KT 25/12 A3014 RMK A01 T02530120  RH  043%=      5-min Rain = 0
KBO1 031431Z 34005KT 25/12 A3014 RMK A01 T02530120  RH  043%=      5-min Rain = 0
KBO1 031432Z 35007KT 25/12 A3015 RMK A01 T02540120  RH  043%=      5-min Rain = 0
KBO1 031433Z 35005KT 25/12 A3015 RMK A01 T02540118  RH  043%=      5-min Rain = 0
KBO1 031434Z 33005KT 25/12 A3015 RMK A01 T02520118  RH  043%=      5-min Rain = 0
KBO1 031435Z 32006KT 25/12 A3015 RMK A01 T02510118  RH  043%=      5-min Rain = 0
KBO1 031436Z 34004KT 25/12 A3015 RMK A01 T02500118  RH  044%=      5-min Rain = 0
KBO1 031437Z 00006KT 25/12 A3015 RMK A01 T02490117  RH  044%=      5-min Rain = 0
KBO1 031438Z 34007KT 25/12 A3015 RMK A01 T02510117  RH  043%=      5-min Rain = 0
KBO1 031439Z 34005KT 25/12 A3015 RMK A01 T02540119  RH  043%=      5-min Rain = 0
KBO1 031440Z 34006KT 26/12 A3015 RMK A01 T02580119  RH  042%=      5-min Rain = 0
KBO1 031441Z 34006KT 26/12 A3015 RMK A01 T02600116  RH  041%=      5-min Rain = 0
KBO1 031442Z 35005KT 26/12 A3015 RMK A01 T02600117  RH  041%=      5-min Rain = 0
KBO1 031443Z 34006KT 26/12 A3015 RMK A01 T02600116  RH  041%=      5-min Rain = 0
KBO1 031444Z 36004KT 26/12 A3015 RMK A01 T02600117  RH  041%=      5-min Rain = 0
KBO1 031445Z 33005KT 26/12 A3015 RMK A01 T02620120  RH  041%=      5-min Rain = 0
KBO1 031446Z 34005KT 26/12 A3015 RMK A01 T02620120  RH  041%=      5-min Rain = 0
KBO1 031447Z 36006KT 26/12 A3015 RMK A01 T02620120  RH  041%=      5-min Rain = 0
KBO1 031448Z 00005KT 26/12 A3015 RMK A01 T02630117  RH  040%=      5-min Rain = 0
KBO1 031449Z 00007KT 26/12 A3015 RMK A01 T02640117  RH  040%=      5-min Rain = 0
KBO1 031450Z 36006KT 27/12 A3015 RMK A01 T02660119  RH  040%=      5-min Rain = 0
KBO1 031451Z 02005KT 27/12 A3015 RMK A01 T02690115  RH  038%=      5-min Rain = 0
KBO1 031452Z 34005KT 27/12 A3015 RMK A01 T02680118  RH  039%=      5-min Rain = 0
KBO1 031453Z 32006KT 27/12 A3015 RMK A01 T02680119  RH  039%=      5-min Rain = 0
KBO1 031454Z 30004KT 27/12 A3015 RMK A01 T02670118  RH  040%=      5-min Rain = 0
KBO1 031455Z 31005KT 27/12 A3015 RMK A01 T02660117  RH  040%=      5-min Rain = 0
KBO1 031456Z 01007KT 27/12 A3015 RMK A01 T02650119  RH  040%=      5-min Rain = 0
KBO1 031457Z 00006KT 27/12 A3015 RMK A01 T02660117  RH  039%=      5-min Rain = 0
KBO1 031458Z 32006KT 27/12 A3015 RMK A01 T02670118  RH  040%=      5-min Rain = 0
KBO1 031459Z 33005KT 27/12 A3015 RMK A01 T02680118  RH  039%=      5-min Rain = 0
KBO1 031500Z 33005KT 27/12 A3015 RMK A01 T02680118  RH  039%=      5-min Rain = 0
KBO1 031501Z 33004KT 27/12 A3015 RMK A01 T02680117  RH  039%=      5-min Rain = 0
KBO1 031502Z 34003KT 27/12 A3015 RMK A01 T02680116  RH  039%=      5-min Rain = 0
KBO1 031503Z 32004KT 27/12 A3015 RMK A01 T02680116  RH  039%=      5-min Rain = 0
KBO1 031504Z 31005KT 27/12 A3015 RMK A01 T02680117  RH  039%=      5-min Rain = 0
KBO1 031505Z 31006KT 27/12 A3015 RMK A01 T02690117  RH  039%=      5-min Rain = 0
KBO1 031506Z 34005KT 27/12 A3015 RMK A01 T02680117  RH  039%=      5-min Rain = 0
KBO1 031507Z 34007KT 27/12 A3015 RMK A01 T02680116  RH  039%=      5-min Rain = 0
KBO1 031508Z 36005KT 27/12 A3015 RMK A01 T02670116  RH  039%=      5-min Rain = 0
KBO1 031509Z 01004KT 27/11 A3015 RMK A01 T02650114  RH  039%=      5-min Rain = 0
KBO1 031510Z 36006KT 27/12 A3015 RMK A01 T02650115  RH  039%=      5-min Rain = 0
KBO1 031511Z 02007KT 27/11 A3015 RMK A01 T02660114  RH  039%=      5-min Rain = 0
KBO1 031512Z 02005KT 27/11 A3015 RMK A01 T02660114  RH  039%=      5-min Rain = 0
KBO1 031513Z 01006KT 27/12 A3015 RMK A01 T02680117  RH  039%=      5-min Rain = 0
KBO1 031514Z 03004KT 27/12 A3015 RMK A01 T02700116  RH  038%=      5-min Rain = 0
KBO1 031515Z 33005KT 27/12 A3015 RMK A01 T02700116  RH  038%=      5-min Rain = 0
KBO1 031516Z 33005KT 27/11 A3015 RMK A01 T02700114  RH  038%=      5-min Rain = 0
KBO1 031517Z 32003KT 27/11 A3015 RMK A01 T02700113  RH  038%=      5-min Rain = 0
KBO1 031518Z 32002KT 27/11 A3015 RMK A01 T02700113  RH  037%=      5-min Rain = 0
KBO1 031519Z 33005KT 27/11 A3015 RMK A01 T02700114  RH  038%=      5-min Rain = 0
KBO1 031520Z 32006KT 27/12 A3015 RMK A01 T02700117  RH  038%=      5-min Rain = 0
KBO1 031521Z 31004KT 27/12 A3015 RMK A01 T02710115  RH  038%=      5-min Rain = 0
KBO1 031522Z 32005KT 27/11 A3015 RMK A01 T02700114  RH  038%=      5-min Rain = 0
KBO1 031523Z 32004KT 27/11 A3015 RMK A01 T02690113  RH  038%=      5-min Rain = 0
KBO1 031524Z 32002KT 27/11 A3015 RMK A01 T02670113  RH  038%=      5-min Rain = 0
KBO1 031525Z 02004KT 27/12 A3015 RMK A01 T02680115  RH  038%=      5-min Rain = 0
KBO1 031526Z 03003KT 27/11 A3015 RMK A01 T02700114  RH  038%=      5-min Rain = 0
KBO1 031527Z 01003KT 27/12 A3015 RMK A01 T02700115  RH  038%=      5-min Rain = 0
KBO1 031528Z 35003KT 27/12 A3015 RMK A01 T02720116  RH  038%=      5-min Rain = 0
KBO1 031529Z 01006KT 28/12 A3015 RMK A01 T02760119  RH  038%=      5-min Rain = 0
KBO1 031530Z 36007KT 28/12 A3015 RMK A01 T02790116  RH  036%=      5-min Rain = 0
KBO1 031531Z 34005KT 28/12 A3015 RMK A01 T02780115  RH  036%=      5-min Rain = 0
KBO1 031532Z 33007KT 28/12 A3015 RMK A01 T02770115  RH  037%=      5-min Rain = 0
KBO1 031533Z 32005KT 28/12 A3015 RMK A01 T02750115  RH  037%=      5-min Rain = 0
KBO1 031534Z 33005KT 28/12 A3015 RMK A01 T02760116  RH  037%=      5-min Rain = 0
KBO1 031535Z 32005KT 28/12 A3015 RMK A01 T02760115  RH  037%=      5-min Rain = 0
KBO1 031536Z 29005KT 28/11 A3015 RMK A01 T02750114  RH  037%=      5-min Rain = 0
KBO1 031537Z 29003KT 27/11 A3015 RMK A01 T02740114  RH  037%=      5-min Rain = 0
KBO1 031538Z 29002KT 27/11 A3015 RMK A01 T02740114  RH  037%=      5-min Rain = 0
KBO1 031539Z 32005KT 28/12 A3015 RMK A01 T02750115  RH  037%=      5-min Rain = 0
KBO1 031540Z 28003KT 28/11 A3015 RMK A01 T02760113  RH  036%=      5-min Rain = 0
KBO1 031541Z 31002KT 28/11 A3015 RMK A01 T02750114  RH  037%=      5-min Rain = 0
KBO1 031542Z 31005KT 28/12 A3015 RMK A01 T02760115  RH  037%=      5-min Rain = 0
KBO1 031543Z 33006KT 28/12 A3015 RMK A01 T02770115  RH  036%=      5-min Rain = 0
KBO1 031544Z 32005KT 28/11 A3015 RMK A01 T02770114  RH  036%=      5-min Rain = 0
KBO1 031545Z 29003KT 28/11 A3015 RMK A01 T02750112  RH  036%=      5-min Rain = 0
KBO1 031546Z 25002KT 27/11 A3014 RMK A01 T02720112  RH  037%=      5-min Rain = 0
KBO1 031547Z 32002KT 27/11 A3014 RMK A01 T02720113  RH  037%=      5-min Rain = 0
KBO1 031548Z 00004KT 27/11 A3015 RMK A01 T02740113  RH  037%=      5-min Rain = 0
KBO1 031549Z 00003KT 28/11 A3015 RMK A01 T02770113  RH  036%=      5-min Rain = 0
KBO1 031550Z 33004KT 28/11 A3015 RMK A01 T02770113  RH  036%=      5-min Rain = 0
KBO1 031551Z 31004KT 28/12 A3015 RMK A01 T02780115  RH  036%=      5-min Rain = 0
KBO1 031552Z 30003KT 28/11 A3015 RMK A01 T02790113  RH  036%=      5-min Rain = 0
KBO1 031553Z 30004KT 28/11 A3014 RMK A01 T02800113  RH  036%=      5-min Rain = 0
KBO1 031554Z 31004KT 28/11 A3014 RMK A01 T02780113  RH  036%=      5-min Rain = 0
KBO1 031555Z 32002KT 28/11 A3014 RMK A01 T02770112  RH  036%=      5-min Rain = 0
KBO1 031556Z 28002KT 28/12 A3014 RMK A01 T02770115  RH  036%=      5-min Rain = 0
KBO1 031557Z 31002KT 28/11 A3014 RMK A01 T02780114  RH  036%=      5-min Rain = 0
KBO1 031558Z 33002KT 28/12 A3014 RMK A01 T02800115  RH  036%=      5-min Rain = 0
KBO1 031559Z 34002KT 28/11 A3014 RMK A01 T02810113  RH  035%=      5-min Rain = 0
KBO1 031600Z 05002KT 28/11 A3014 RMK A01 T02820114  RH  035%=      5-min Rain = 0
KBO1 031601Z 27002KT 28/11 A3014 RMK A01 T02830113  RH  035%=      5-min Rain = 0
KBO1 031602Z 28004KT 28/11 A3014 RMK A01 T02840114  RH  035%=      5-min Rain = 0
KBO1 031603Z 29004KT 28/11 A3014 RMK A01 T02840113  RH  035%=      5-min Rain = 0
KBO1 031604Z 30003KT 28/11 A3014 RMK A01 T02840113  RH  035%=      5-min Rain = 0
KBO1 031605Z 28003KT 28/11 A3014 RMK A01 T02830114  RH  035%=      5-min Rain = 0
KBO1 031606Z 31005KT 28/11 A3014 RMK A01 T02840113  RH  035%=      5-min Rain = 0
KBO1 031607Z 31004KT 28/11 A3014 RMK A01 T02830114  RH  035%=      5-min Rain = 0
KBO1 031608Z 30003KT 28/11 A3014 RMK A01 T02820112  RH  035%=      5-min Rain = 0
KBO1 031609Z 30004KT 28/11 A3014 RMK A01 T02820113  RH  035%=      5-min Rain = 0
KBO1 031610Z 30003KT 28/11 A3014 RMK A01 T02810113  RH  035%=      5-min Rain = 0
KBO1 031611Z 29004KT 28/11 A3014 RMK A01 T02820114  RH  035%=      5-min Rain = 0
KBO1 031612Z 29005KT 28/11 A3014 RMK A01 T02830112  RH  035%=      5-min Rain = 0
KBO1 031613Z 31004KT 28/11 A3014 RMK A01 T02840114  RH  035%=      5-min Rain = 0
KBO1 031614Z 32002KT 28/11 A3014 RMK A01 T02840112  RH  034%=      5-min Rain = 0
KBO1 031615Z 28001KT 28/11 A3014 RMK A01 T02840114  RH  035%=      5-min Rain = 0
KBO1 031616Z 26003KT 29/11 A3014 RMK A01 T02850113  RH  034%=      5-min Rain = 0
KBO1 031617Z 27006KT 29/11 A3014 RMK A01 T02870114  RH  034%=      5-min Rain = 0
KBO1 031618Z 29006KT 29/11 A3014 RMK A01 T02890114  RH  034%=      5-min Rain = 0
KBO1 031619Z 29006KT 29/11 A3014 RMK A01 T02890113  RH  034%=      5-min Rain = 0
KBO1 031620Z 28006KT 29/11 A3014 RMK A01 T02880112  RH  034%=      5-min Rain = 0
KBO1 031621Z 29006KT 29/11 A3014 RMK A01 T02860112  RH  034%=      5-min Rain = 0
KBO1 031622Z 27005KT 28/11 A3014 RMK A01 T02840111  RH  034%=      5-min Rain = 0
KBO1 031623Z 26005KT 28/11 A3014 RMK A01 T02830112  RH  035%=      5-min Rain = 0
KBO1 031624Z 27004KT 28/11 A3014 RMK A01 T02830111  RH  034%=      5-min Rain = 0
KBO1 031625Z 26004KT 28/11 A3014 RMK A01 T02840113  RH  035%=      5-min Rain = 0
KBO1 031626Z 19002KT 29/11 A3014 RMK A01 T02850111  RH  034%=      5-min Rain = 0
KBO1 031627Z 20004KT 29/11 A3014 RMK A01 T02860111  RH  034%=      5-min Rain = 0
KBO1 031628Z 21002KT 29/11 A3014 RMK A01 T02850110  RH  034%=      5-min Rain = 0
KBO1 031629Z 24002KT 28/11 A3014 RMK A01 T02840110  RH  034%=      5-min Rain = 0
KBO1 031630Z 21003KT 28/11 A3014 RMK A01 T02840110  RH  034%=      5-min Rain = 0
KBO1 031631Z 22003KT 28/11 A3014 RMK A01 T02830110  RH  034%=      5-min Rain = 0
KBO1 031632Z 25003KT 28/11 A3014 RMK A01 T02830110  RH  034%=      5-min Rain = 0
KBO1 031633Z 26003KT 28/11 A3014 RMK A01 T02820111  RH  034%=      5-min Rain = 0
KBO1 031634Z 26002KT 28/11 A3014 RMK A01 T02840110  RH  034%=      5-min Rain = 0
KBO1 031635Z 25003KT 29/11 A3014 RMK A01 T02850111  RH  034%=      5-min Rain = 0
KBO1 031636Z 24001KT 29/11 A3014 RMK A01 T02870111  RH  033%=      5-min Rain = 0
KBO1 031637Z 29000KT 29/11 A3014 RMK A01 T02880110  RH  033%=      5-min Rain = 0
KBO1 031638Z 31002KT 29/11 A3014 RMK A01 T02890111  RH  033%=      5-min Rain = 0
KBO1 031639Z 32004KT 29/11 A3014 RMK A01 T02900111  RH  033%=      5-min Rain = 0
KBO1 031640Z 32004KT 29/11 A3014 RMK A01 T02890110  RH  033%=      5-min Rain = 0
KBO1 031641Z 30004KT 29/11 A3014 RMK A01 T02880111  RH  033%=      5-min Rain = 0
KBO1 031642Z 30004KT 29/11 A3014 RMK A01 T02880111  RH  033%=      5-min Rain = 0
KBO1 031643Z 30003KT 29/11 A3014 RMK A01 T02890111  RH  033%=      5-min Rain = 0
KBO1 031644Z 33002KT 29/11 A3014 RMK A01 T02890111  RH  033%=      5-min Rain = 0
KBO1 031645Z 27005KT 29/11 A3014 RMK A01 T02900111  RH  033%=      5-min Rain = 0
KBO1 031646Z 21005KT 29/11 A3014 RMK A01 T02910111  RH  033%=      5-min Rain = 0
KBO1 031647Z 20004KT 29/11 A3014 RMK A01 T02890110  RH  033%=      5-min Rain = 0
KBO1 031648Z 22004KT 29/11 A3014 RMK A01 T02870110  RH  033%=      5-min Rain = 0
KBO1 031649Z 25003KT 29/11 A3014 RMK A01 T02860110  RH  034%=      5-min Rain = 0
KBO1 031650Z 26003KT 29/11 A3014 RMK A01 T02850111  RH  034%=      5-min Rain = 0
KBO1 031651Z 29002KT 29/11 A3014 RMK A01 T02870110  RH  034%=      5-min Rain = 0
KBO1 031652Z 29004KT 29/11 A3014 RMK A01 T02880111  RH  033%=      5-min Rain = 0
KBO1 031653Z 32003KT 29/11 A3014 RMK A01 T02890111  RH  033%=      5-min Rain = 0
KBO1 031654Z 31002KT 29/11 A3014 RMK A01 T02900111  RH  033%=      5-min Rain = 0
KBO1 031655Z 26002KT 29/11 A3014 RMK A01 T02910113  RH  033%=      5-min Rain = 0
KBO1 031656Z 23002KT 29/11 A3014 RMK A01 T02940110  RH  032%=      5-min Rain = 0
KBO1 031657Z 26004KT 29/11 A3014 RMK A01 T02930111  RH  032%=      5-min Rain = 0
KBO1 031658Z 22004KT 29/11 A3014 RMK A01 T02920111  RH  032%=      5-min Rain = 0
KBO1 031659Z 24004KT 29/11 A3014 RMK A01 T02910111  RH  033%=      5-min Rain = 0
KBO1 031700Z 31003KT 29/11 A3014 RMK A01 T02900113  RH  033%=      5-min Rain = 0
KBO1 031701Z 31003KT 29/11 A3014 RMK A01 T02910111  RH  033%=      5-min Rain = 0
KBO1 031702Z 33003KT 29/11 A3014 RMK A01 T02910111  RH  033%=      5-min Rain = 0
KBO1 031703Z 35005KT 29/11 A3014 RMK A01 T02940114  RH  033%=      5-min Rain = 0
KBO1 031704Z 31006KT 30/11 A3014 RMK A01 T02950111  RH  032%=      5-min Rain = 0
KBO1 031705Z 34005KT 29/11 A3014 RMK A01 T02940112  RH  032%=      5-min Rain = 0
KBO1 031706Z 33003KT 29/11 A3013 RMK A01 T02940112  RH  033%=      5-min Rain = 0
KBO1 031707Z 32002KT 30/11 A3013 RMK A01 T02950111  RH  032%=      5-min Rain = 0
KBO1 031708Z 28004KT 30/11 A3013 RMK A01 T02960113  RH  032%=      5-min Rain = 0
KBO1 031709Z 28004KT 30/11 A3013 RMK A01 T02980111  RH  032%=      5-min Rain = 0
KBO1 031710Z 25002KT 30/11 A3013 RMK A01 T02970110  RH  031%=      5-min Rain = 0
KBO1 031711Z 01004KT 30/11 A3013 RMK A01 T02970111  RH  032%=      5-min Rain = 0
KBO1 031712Z 03005KT 30/11 A3013 RMK A01 T02980112  RH  032%=      5-min Rain = 0
KBO1 031713Z 03005KT 30/11 A3013 RMK A01 T03000112  RH  031%=      5-min Rain = 0
KBO1 031714Z 04004KT 30/11 A3013 RMK A01 T03000111  RH  031%=      5-min Rain = 0
KBO1 031715Z 03001KT 30/11 A3013 RMK A01 T02990111  RH  031%=      5-min Rain = 0
KBO1 031716Z 02003KT 30/11 A3013 RMK A01 T03000112  RH  031%=      5-min Rain = 0
KBO1 031717Z 04004KT 30/11 A3013 RMK A01 T03010111  RH  031%=      5-min Rain = 0
KBO1 031718Z 05003KT 30/11 A3013 RMK A01 T03020108  RH  030%=      5-min Rain = 0
KBO1 031719Z 06005KT 30/11 A3013 RMK A01 T03030108  RH  030%=      5-min Rain = 0
KBO1 031720Z 08002KT 30/11 A3013 RMK A01 T03030106  RH  030%=      5-min Rain = 0
KBO1 031721Z 06004KT 30/11 A3013 RMK A01 T03010107  RH  030%=      5-min Rain = 0
KBO1 031722Z 06003KT 30/11 A3013 RMK A01 T03000106  RH  030%=      5-min Rain = 0
KBO1 031723Z 06001KT 30/10 A3013 RMK A01 T02980104  RH  030%=      5-min Rain = 0
KBO1 031724Z 04001KT 30/11 A3013 RMK A01 T02980105  RH  030%=      5-min Rain = 0
KBO1 031725Z 07001KT 30/11 A3013 RMK A01 T02990105  RH  030%=      5-min Rain = 0
KBO1 031726Z 10007KT 30/11 A3013 RMK A01 T03010106  RH  030%=      5-min Rain = 0
KBO1 031727Z 10008KT 30/11 A3013 RMK A01 T03030106  RH  029%=      5-min Rain = 0
KBO1 031728Z 08007KT 30/10 A3013 RMK A01 T03040103  RH  029%=      5-min Rain = 0
KBO1 031729Z 10005KT 30/10 A3013 RMK A01 T03010103  RH  029%=      5-min Rain = 0
KBO1 031730Z 10002KT 30/10 A3013 RMK A01 T02990102  RH  029%=      5-min Rain = 0
KBO1 031731Z 11002KT 30/10 A3013 RMK A01 T02980101  RH  029%=      5-min Rain = 0
KBO1 031732Z 08001KT 30/10 A3013 RMK A01 T02980103  RH  030%=      5-min Rain = 0
KBO1 031733Z 10000KT 30/10 A3013 RMK A01 T02990104  RH  030%=      5-min Rain = 0
KBO1 031734Z 22001KT 30/10 A3013 RMK A01 T03010104  RH  029%=      5-min Rain = 0
KBO1 031735Z 25002KT 30/10 A3013 RMK A01 T03030104  RH  029%=      5-min Rain = 0
KBO1 031736Z 21005KT 30/10 A3013 RMK A01 T03030104  RH  029%=      5-min Rain = 0
KBO1 031737Z 24003KT 30/10 A3013 RMK A01 T03030103  RH  029%=      5-min Rain = 0
KBO1 031738Z 26004KT 30/11 A3013 RMK A01 T03020105  RH  030%=      5-min Rain = 0
KBO1 031739Z 22002KT 30/10 A3013 RMK A01 T03030104  RH  029%=      5-min Rain = 0
KBO1 031740Z 31002KT 30/10 A3013 RMK A01 T03040102  RH  029%=      5-min Rain = 0
KBO1 031741Z 34003KT 30/10 A3013 RMK A01 T03040103  RH  029%=      5-min Rain = 0
KBO1 031742Z 01003KT 31/11 A3012 RMK A01 T03060105  RH  029%=      5-min Rain = 0
KBO1 031743Z 05003KT 31/10 A3012 RMK A01 T03090100  RH  027%=      5-min Rain = 0
KBO1 031744Z 09002KT 31/10 A3012 RMK A01 T03090099  RH  027%=      5-min Rain = 0
KBO1 031745Z 11008KT 31/10 A3012 RMK A01 T03100101  RH  027%=      5-min Rain = 0
KBO1 031746Z 09007KT 31/10 A3012 RMK A01 T03130103  RH  027%=      5-min Rain = 0
KBO1 031747Z 12005KT 32/10 A3012 RMK A01 T03150101  RH  027%=      5-min Rain = 0
KBO1 031748Z 14007KT 31/10 A3012 RMK A01 T03130103  RH  027%=      5-min Rain = 0
KBO1 031749Z 13011KT 32/10 A3012 RMK A01 T03170102  RH  027%=      5-min Rain = 0
KBO1 031750Z 12010G15KT 32/10 A3013 RMK A01 T03180100  RH  026%=      5-min Rain = 0
KBO1 031751Z 12010KT 31/10 A3012 RMK A01 T03120101  RH  027%=      5-min Rain = 0
KBO1 031752Z 12010KT 31/10 A3012 RMK A01 T03130101  RH  027%=      5-min Rain = 0
KBO1 031753Z 14009KT 32/10 A3012 RMK A01 T03150098  RH  026%=      5-min Rain = 0
KBO1 031754Z 12007KT 31/10 A3012 RMK A01 T03140098  RH  026%=      5-min Rain = 0
KBO1 031755Z 09004KT 31/10 A3012 RMK A01 T03110098  RH  027%=      5-min Rain = 0
KBO1 031756Z 08005KT 31/10 A3012 RMK A01 T03100098  RH  027%=      5-min Rain = 0
KBO1 031757Z 11004KT 31/10 A3012 RMK A01 T03130099  RH  027%=      5-min Rain = 0
KBO1 031758Z 15005G10KT 32/10 A3012 RMK A01 T03150099  RH  026%=      5-min Rain = 0
KBO1 031759Z 17012KT 32/10 A3012 RMK A01 T03170098  RH  026%=      5-min Rain = 0
KBO1 031800Z 15008KT 32/10 A3012 RMK A01 T03180099  RH  026%=      5-min Rain = 0
KBO1 031801Z 15003KT 32/09 A3012 RMK A01 T03170093  RH  025%=      5-min Rain = 0
KBO1 031802Z 14008KT 32/09 A3012 RMK A01 T03150094  RH  025%=      5-min Rain = 0
KBO1 031803Z 16011KT 32/10 A3012 RMK A01 T03150096  RH  026%=      5-min Rain = 0
KBO1 031804Z 15008KT 32/10 A3012 RMK A01 T03150095  RH  026%=      5-min Rain = 0
KBO1 031805Z 15006KT 31/10 A3012 RMK A01 T03120095  RH  026%=      5-min Rain = 0
KBO1 031806Z 16008KT 31/10 A3012 RMK A01 T03120095  RH  026%=      5-min Rain = 0
KBO1 031807Z 13006KT 31/09 A3012 RMK A01 T03130094  RH  026%=      5-min Rain = 0
KBO1 031808Z 10005KT 31/09 A3012 RMK A01 T03110093  RH  026%=      5-min Rain = 0
KBO1 031809Z 11004KT 31/09 A3012 RMK A01 T03120093  RH  026%=      5-min Rain = 0
KBO1 031810Z 09004KT 31/09 A3011 RMK A01 T03120091  RH  025%=      5-min Rain = 0
KBO1 031811Z 17005KT 31/09 A3011 RMK A01 T03120094  RH  026%=      5-min Rain = 0
KBO1 031812Z 19006KT 31/09 A3011 RMK A01 T03130093  RH  026%=      5-min Rain = 0
KBO1 031813Z 21008KT 31/10 A3011 RMK A01 T03120095  RH  026%=      5-min Rain = 0
KBO1 031814Z 21011KT 31/09 A3011 RMK A01 T03120094  RH  026%=      5-min Rain = 0
KBO1 031815Z 21009KT 31/09 A3011 RMK A01 T03080093  RH  026%=      5-min Rain = 0
KBO1 031816Z 22008KT 31/09 A3011 RMK A01 T03060093  RH  027%=      5-min Rain = 0
KBO1 031817Z 21008KT 31/09 A3011 RMK A01 T03050093  RH  027%=      5-min Rain = 0
KBO1 031818Z 21007KT 30/09 A3011 RMK A01 T03040093  RH  027%=      5-min Rain = 0
KBO1 031819Z 21007KT 31/09 A3011 RMK A01 T03060093  RH  027%=      5-min Rain = 0
KBO1 031820Z 23004KT 31/09 A3011 RMK A01 T03100092  RH  026%=      5-min Rain = 0
KBO1 031821Z 23004KT 31/09 A3011 RMK A01 T03110092  RH  026%=      5-min Rain = 0
KBO1 031822Z 19003KT 31/09 A3011 RMK A01 T03110092  RH  026%=      5-min Rain = 0
KBO1 031823Z 18002KT 31/09 A3011 RMK A01 T03110093  RH  026%=      5-min Rain = 0
KBO1 031824Z 14006KT 31/10 A3011 RMK A01 T03120095  RH  026%=      5-min Rain = 0
KBO1 031825Z 15005KT 32/09 A3011 RMK A01 T03170093  RH  025%=      5-min Rain = 0
KBO1 031826Z 14008G13KT 32/09 A3011 RMK A01 T03210091  RH  024%=      5-min Rain = 0
KBO1 031827Z 13009KT 32/09 A3011 RMK A01 T03220093  RH  024%=      5-min Rain = 0
KBO1 031828Z 12009KT 32/09 A3011 RMK A01 T03220094  RH  024%=      5-min Rain = 0
KBO1 031829Z 12008KT 32/09 A3011 RMK A01 T03230093  RH  024%=      5-min Rain = 0
KBO1 031830Z 14011KT 32/09 A3011 RMK A01 T03180089  RH  024%=      5-min Rain = 0
KBO1 031831Z 13010KT 31/09 A3011 RMK A01 T03140090  RH  025%=      5-min Rain = 0
KBO1 031832Z 13007KT 31/09 A3011 RMK A01 T03100089  RH  025%=      5-min Rain = 0
KBO1 031833Z 12005KT 31/09 A3011 RMK A01 T03080090  RH  026%=      5-min Rain = 0
KBO1 031834Z 02001KT 31/09 A3011 RMK A01 T03090088  RH  025%=      5-min Rain = 0
KBO1 031835Z 03004KT 31/09 A3011 RMK A01 T03060087  RH  026%=      5-min Rain = 0
KBO1 031836Z 06004KT 31/09 A3011 RMK A01 T03050089  RH  026%=      5-min Rain = 0
KBO1 031837Z 04003KT 31/09 A301 RMK A01 T03050088  RH  026%=      5-min Rain = 0
KBO1 031838Z 04004KT 30/09 A301 RMK A01 T03040089  RH  026%=      5-min Rain = 0
KBO1 031839Z 08004KT 31/09 A301 RMK A01 T03050091  RH  026%=      5-min Rain = 0
KBO1 031840Z 13003KT 31/09 A301 RMK A01 T03070089  RH  026%=      5-min Rain = 0
KBO1 031841Z 19004KT 31/09 A301 RMK A01 T03090091  RH  026%=      5-min Rain = 0
KBO1 031842Z 17003KT 31/09 A301 RMK A01 T03120092  RH  026%=      5-min Rain = 0
KBO1 031843Z 13008KT 32/09 A301 RMK A01 T03150094  RH  025%=      5-min Rain = 0
KBO1 031844Z 14008KT 32/10 A301 RMK A01 T03200095  RH  025%=      5-min Rain = 0
KBO1 031845Z 12006KT 32/09 A301 RMK A01 T03190092  RH  024%=      5-min Rain = 0
KBO1 031846Z 17001KT 32/09 A301 RMK A01 T03150091  RH  025%=      5-min Rain = 0
KBO1 031847Z 20003KT 31/09 A301 RMK A01 T03130090  RH  025%=      5-min Rain = 0
KBO1 031848Z 19011KT 31/09 A301 RMK A01 T03120088  RH  025%=      5-min Rain = 0
KBO1 031849Z 19009KT 31/09 A301 RMK A01 T03110086  RH  025%=      5-min Rain = 0
KBO1 031850Z 20006KT 31/09 A301 RMK A01 T03130088  RH  025%=      5-min Rain = 0
KBO1 031851Z 21009KT 32/09 A301 RMK A01 T03160088  RH  024%=      5-min Rain = 0
KBO1 031852Z 20007KT 32/09 A301 RMK A01 T03170088  RH  024%=      5-min Rain = 0
KBO1 031853Z 22007KT 32/09 A301 RMK A01 T03200089  RH  024%=      5-min Rain = 0
KBO1 031854Z 21005KT 32/09 A301 RMK A01 T03210089  RH  024%=      5-min Rain = 0
KBO1 031855Z 19010KT 32/09 A301 RMK A01 T03210092  RH  024%=      5-min Rain = 0
KBO1 031856Z 19012KT 32/10 A3009 RMK A01 T03220095  RH  025%=      5-min Rain = 0
KBO1 031857Z 21013KT 32/09 A3009 RMK A01 T03230093  RH  024%=      5-min Rain = 0
KBO1 031858Z 20010KT 32/09 A3009 RMK A01 T03220094  RH  025%=      5-min Rain = 0
KBO1 031859Z 20010KT 33/10 A301 RMK A01 T03260095  RH  024%=      5-min Rain = 0
KBO1 031900Z 21010KT 33/09 A3009 RMK A01 T03260094  RH  024%=      5-min Rain = 0
KBO1 031901Z 21013KT 32/09 A3009 RMK A01 T03240094  RH  024%=      5-min Rain = 0
KBO1 031902Z 21009KT 32/09 A301 RMK A01 T03240092  RH  024%=      5-min Rain = 0
KBO1 031903Z 23008KT 32/09 A3009 RMK A01 T03200090  RH  024%=      5-min Rain = 0
KBO1 031904Z 24003KT 32/09 A3009 RMK A01 T03170088  RH  024%=      5-min Rain = 0
KBO1 031905Z 24004KT 32/09 A3009 RMK A01 T03160090  RH  025%=      5-min Rain = 0
KBO1 031906Z 23003KT 32/09 A3009 RMK A01 T03170088  RH  024%=      5-min Rain = 0
KBO1 031907Z 24001KT 32/09 A3009 RMK A01 T03170089  RH  024%=      5-min Rain = 0
KBO1 031908Z 22001KT 32/09 A3009 RMK A01 T03200090  RH  024%=      5-min Rain = 0
KBO1 031909Z 21003KT 32/09 A3009 RMK A01 T03230091  RH  024%=      5-min Rain = 0
KBO1 031910Z 19008KT 32/09 A3009 RMK A01 T03240091  RH  024%=      5-min Rain = 0
KBO1 031911Z 17006KT 32/09 A3009 RMK A01 T03240089  RH  023%=      5-min Rain = 0
KBO1 031912Z 18008KT 32/09 A3009 RMK A01 T03220090  RH  024%=      5-min Rain = 0
KBO1 031913Z 18009KT 32/09 A3009 RMK A01 T03240091  RH  024%=      5-min Rain = 0
KBO1 031914Z 18008KT 33/09 A3009 RMK A01 T03280089  RH  023%=      5-min Rain = 0
KBO1 031915Z 19004KT 33/09 A3009 RMK A01 T03260088  RH  023%=      5-min Rain = 0
KBO1 031916Z 20005KT 33/09 A3009 RMK A01 T03250089  RH  023%=      5-min Rain = 0
KBO1 031917Z 19005KT 33/09 A3009 RMK A01 T03250089  RH  023%=      5-min Rain = 0
KBO1 031918Z 21003KT 32/09 A3009 RMK A01 T03220087  RH  023%=      5-min Rain = 0
KBO1 031919Z 22007KT 32/09 A3009 RMK A01 T03210090  RH  024%=      5-min Rain = 0
KBO1 031920Z 21006KT 32/09 A3009 RMK A01 T03230089  RH  024%=      5-min Rain = 0
KBO1 031921Z 24007KT 32/09 A3009 RMK A01 T03230089  RH  023%=      5-min Rain = 0
KBO1 031922Z 25005KT 32/09 A3008 RMK A01 T03210090  RH  024%=      5-min Rain = 0
KBO1 031923Z 26004KT 32/09 A3008 RMK A01 T03220088  RH  024%=      5-min Rain = 0
KBO1 031924Z 24003KT 32/09 A3008 RMK A01 T03180087  RH  024%=      5-min Rain = 0
KBO1 031925Z 20006KT 32/09 A3008 RMK A01 T03160088  RH  024%=      5-min Rain = 0
KBO1 031926Z 19009KT 32/09 A3008 RMK A01 T03170087  RH  024%=      5-min Rain = 0
KBO1 031927Z 19007KT 32/09 A3008 RMK A01 T03170087  RH  024%=      5-min Rain = 0
KBO1 031928Z 20008KT 32/09 A3008 RMK A01 T03160087  RH  024%=      5-min Rain = 0
KBO1 031929Z 21008KT 32/09 A3008 RMK A01 T03150088  RH  025%=      5-min Rain = 0
KBO1 031930Z 21004KT 31/09 A3008 RMK A01 T03140087  RH  024%=      5-min Rain = 0
KBO1 031931Z 22006KT 31/09 A3008 RMK A01 T03120087  RH  025%=      5-min Rain = 0
KBO1 031932Z 21007KT 31/09 A3008 RMK A01 T03120086  RH  025%=      5-min Rain = 0
KBO1 031933Z 20012KT 31/09 A3008 RMK A01 T03130087  RH  025%=      5-min Rain = 0
KBO1 031934Z 21009KT 31/09 A3008 RMK A01 T03130086  RH  024%=      5-min Rain = 0
KBO1 031935Z 19007KT 31/09 A3008 RMK A01 T03140087  RH  024%=      5-min Rain = 0
KBO1 031936Z 17005KT 32/09 A3008 RMK A01 T03210090  RH  024%=      5-min Rain = 0
KBO1 031937Z 16005G11KT 33/09 A3008 RMK A01 T03270092  RH  023%=      5-min Rain = 0
KBO1 031938Z 18009KT 33/09 A3008 RMK A01 T03310090  RH  023%=      5-min Rain = 0
KBO1 031939Z 21006KT 33/09 A3008 RMK A01 T03300086  RH  022%=      5-min Rain = 0
KBO1 031940Z 25005KT 33/09 A3008 RMK A01 T03250085  RH  023%=      5-min Rain = 0
KBO1 031941Z 24006KT 32/09 A3008 RMK A01 T03210086  RH  023%=      5-min Rain = 0
KBO1 031942Z 24004KT 32/09 A3008 RMK A01 T03210087  RH  024%=      5-min Rain = 0
KBO1 031943Z 13007KT 33/09 A3008 RMK A01 T03280091  RH  023%=      5-min Rain = 0
KBO1 031944Z 11005KT 33/09 A3008 RMK A01 T03310085  RH  022%=      5-min Rain = 0
KBO1 031945Z 15003KT 33/08 A3008 RMK A01 T03250084  RH  022%=      5-min Rain = 0
KBO1 031946Z 19003KT 32/09 A3007 RMK A01 T03240085  RH  023%=      5-min Rain = 0
KBO1 031947Z 16004KT 33/09 A3007 RMK A01 T03250086  RH  023%=      5-min Rain = 0
KBO1 031948Z 20010G17KT 33/09 A3007 RMK A01 T03290090  RH  023%=      5-min Rain = 0
KBO1 031949Z 17006KT 33/09 A3008 RMK A01 T03330090  RH  022%=      5-min Rain = 0
KBO1 031950Z 19008KT 34/09 A3007 RMK A01 T03370093  RH  022%=      5-min Rain = 0
KBO1 031951Z 22011KT 34/09 A3007 RMK A01 T03370092  RH  022%=      5-min Rain = 0
KBO1 031952Z 23011KT 33/09 A3007 RMK A01 T03330088  RH  022%=      5-min Rain = 0
KBO1 031953Z 22012KT 33/09 A3007 RMK A01 T03290087  RH  022%=      5-min Rain = 0
KBO1 031954Z 22009KT 33/08 A3008 RMK A01 T03250084  RH  023%=      5-min Rain = 0
KBO1 031955Z 22011KT 32/09 A3007 RMK A01 T03200086  RH  023%=      5-min Rain = 0
KBO1 031956Z 21008KT 32/09 A3008 RMK A01 T03180086  RH  024%=      5-min Rain = 0
KBO1 031957Z 21004KT 32/09 A3008 RMK A01 T03190085  RH  023%=      5-min Rain = 0
KBO1 031958Z 18005KT 32/09 A3007 RMK A01 T03180085  RH  024%=      5-min Rain = 0
KBO1 031959Z 17004KT 32/09 A3007 RMK A01 T03180085  RH  024%=      5-min Rain = 0
KBO1 032000Z 23002KT 32/09 A3007 RMK A01 T03210087  RH  024%=      5-min Rain = 0
KBO1 032001Z 22004KT 32/09 A3007 RMK A01 T03240087  RH  023%=      5-min Rain = 0
KBO1 032002Z 22005KT 32/09 A3007 RMK A01 T03240087  RH  023%=      5-min Rain = 0
KBO1 032003Z 20007KT 33/09 A3007 RMK A01 T03250089  RH  023%=      5-min Rain = 0
KBO1 032004Z 18006KT 33/09 A3007 RMK A01 T03290086  RH  022%=      5-min Rain = 0
KBO1 032005Z 19003KT 33/09 A3007 RMK A01 T03280087  RH  023%=      5-min Rain = 0
KBO1 032006Z 20004KT 33/09 A3007 RMK A01 T03270085  RH  022%=      5-min Rain = 0
KBO1 032007Z 23006G11KT 33/09 A3007 RMK A01 T03290088  RH  023%=      5-min Rain = 0
KBO1 032008Z 24011KT 33/09 A3007 RMK A01 T03320089  RH  022%=      5-min Rain = 0
KBO1 032009Z 22006KT 33/09 A3007 RMK A01 T03310086  RH  022%=      5-min Rain = 0
KBO1 032010Z 23008KT 32/09 A3007 RMK A01 T03240086  RH  023%=      5-min Rain = 0
KBO1 032011Z 23009KT 32/09 A3007 RMK A01 T03210088  RH  024%=      5-min Rain = 0
KBO1 032012Z 23009KT 32/09 A3007 RMK A01 T03220086  RH  023%=      5-min Rain = 0
KBO1 032013Z 24006KT 32/09 A3007 RMK A01 T03210085  RH  023%=      5-min Rain = 0
KBO1 032014Z 23007KT 32/09 A3007 RMK A01 T03170085  RH  024%=      5-min Rain = 0
KBO1 032015Z 23010KT 32/09 A3007 RMK A01 T03160086  RH  024%=      5-min Rain = 0
KBO1 032016Z 21010KT 32/09 A3007 RMK A01 T03170086  RH  024%=      5-min Rain = 0
KBO1 032017Z 21008KT 32/09 A3007 RMK A01 T03180087  RH  024%=      5-min Rain = 0
KBO1 032018Z 22006KT 32/09 A3007 RMK A01 T03190085  RH  023%=      5-min Rain = 0
KBO1 032019Z 23008KT 32/09 A3007 RMK A01 T03170085  RH  024%=      5-min Rain = 0
KBO1 032020Z 23011KT 32/08 A3007 RMK A01 T03170084  RH  023%=      5-min Rain = 0
KBO1 032021Z 23007KT 32/08 A3007 RMK A01 T03160082  RH  023%=      5-min Rain = 0
KBO1 032022Z 27004KT 31/08 A3006 RMK A01 T03140083  RH  024%=      5-min Rain = 0
KBO1 032023Z 27006KT 31/09 A3006 RMK A01 T03140085  RH  024%=      5-min Rain = 0
KBO1 032024Z 28005KT 31/08 A3006 RMK A01 T03140083  RH  024%=      5-min Rain = 0
KBO1 032025Z 23005KT 31/09 A3006 RMK A01 T03130085  RH  024%=      5-min Rain = 0
KBO1 032026Z 20008KT 32/08 A3006 RMK A01 T03150082  RH  024%=      5-min Rain = 0
KBO1 032027Z 20009KT 32/08 A3006 RMK A01 T03180082  RH  023%=      5-min Rain = 0
KBO1 032028Z 20007KT 32/08 A3006 RMK A01 T03180081  RH  023%=      5-min Rain = 0
KBO1 032029Z 19003KT 32/08 A3006 RMK A01 T03170080  RH  023%=      5-min Rain = 0
KBO1 032030Z 19002KT 32/08 A3006 RMK A01 T03150079  RH  023%=      5-min Rain = 0
KBO1 032031Z 21003KT 31/08 A3006 RMK A01 T03140080  RH  023%=      5-min Rain = 0
KBO1 032032Z 21003KT 32/08 A3006 RMK A01 T03150080  RH  023%=      5-min Rain = 0
KBO1 032033Z 19001KT 32/08 A3006 RMK A01 T03150079  RH  023%=      5-min Rain = 0
KBO1 032034Z 21001KT 32/08 A3006 RMK A01 T03150079  RH  023%=      5-min Rain = 0
KBO1 032035Z 21006KT 32/08 A3006 RMK A01 T03150081  RH  023%=      5-min Rain = 0
KBO1 032036Z 21007KT 32/08 A3006 RMK A01 T03150081  RH  023%=      5-min Rain = 0
KBO1 032037Z 22010KT 32/08 A3006 RMK A01 T03170083  RH  023%=      5-min Rain = 0
KBO1 032038Z 21013KT 32/08 A3006 RMK A01 T03230083  RH  023%=      5-min Rain = 0
KBO1 032039Z 21009KT 33/08 A3006 RMK A01 T03270083  RH  022%=      5-min Rain = 0
KBO1 032040Z 21007KT 33/08 A3006 RMK A01 T03300082  RH  022%=      5-min Rain = 0
KBO1 032041Z 23010KT 33/08 A3006 RMK A01 T03300082  RH  022%=      5-min Rain = 0
KBO1 032042Z 24008KT 33/08 A3006 RMK A01 T03310079  RH  021%=      5-min Rain = 0
KBO1 032043Z 23008KT 33/08 A3006 RMK A01 T03290082  RH  022%=      5-min Rain = 0
KBO1 032044Z 23007KT 33/08 A3006 RMK A01 T03310079  RH  021%=      5-min Rain = 0
KBO1 032045Z 23005KT 33/08 A3006 RMK A01 T03310080  RH  021%=      5-min Rain = 0
KBO1 032046Z 24008KT 33/08 A3006 RMK A01 T03320081  RH  021%=      5-min Rain = 0
KBO1 032047Z 24006KT 33/08 A3006 RMK A01 T03330079  RH  021%=      5-min Rain = 0
KBO1 032048Z 23008KT 33/08 A3006 RMK A01 T03320083  RH  021%=      5-min Rain = 0
KBO1 032049Z 23007KT 34/08 A3006 RMK A01 T03350080  RH  021%=      5-min Rain = 0
KBO1 032050Z 24005KT 33/08 A3006 RMK A01 T03330079  RH  021%=      5-min Rain = 0
KBO1 032051Z 23007KT 33/08 A3006 RMK A01 T03300079  RH  021%=      5-min Rain = 0
KBO1 032052Z 23008KT 33/08 A3006 RMK A01 T03290080  RH  021%=      5-min Rain = 0
KBO1 032053Z 23005KT 33/08 A3006 RMK A01 T03290080  RH  021%=      5-min Rain = 0
KBO1 032054Z 23003KT 33/08 A3006 RMK A01 T03290081  RH  022%=      5-min Rain = 0
KBO1 032055Z 22004KT 33/08 A3006 RMK A01 T03320082  RH  021%=      5-min Rain = 0
KBO1 032056Z 21007KT 34/08 A3005 RMK A01 T03350082  RH  021%=      5-min Rain = 0
KBO1 032057Z 19009KT 34/08 A3005 RMK A01 T03360084  RH  021%=      5-min Rain = 0
KBO1 032058Z 19013KT 34/08 A3005 RMK A01 T03350083  RH  021%=      5-min Rain = 0
KBO1 032059Z 19012KT 34/08 A3005 RMK A01 T03350084  RH  021%=      5-min Rain = 0
KBO1 032100Z 19011KT 34/08 A3005 RMK A01 T03370084  RH  021%=      5-min Rain = 0
KBO1 032101Z 19009KT 34/08 A3005 RMK A01 T03400083  RH  021%=      5-min Rain = 0
KBO1 032102Z 18010KT 34/09 A3005 RMK A01 T03380085  RH  021%=      5-min Rain = 0
KBO1 032103Z 20010KT 34/08 A3005 RMK A01 T03400084  RH  021%=      5-min Rain = 0
KBO1 032104Z 18009KT 34/08 A3005 RMK A01 T03390082  RH  021%=      5-min Rain = 0
KBO1 032105Z 17010KT 34/08 A3005 RMK A01 T03350083  RH  021%=      5-min Rain = 0
KBO1 032106Z 16010KT 33/08 A3005 RMK A01 T03340084  RH  021%=      5-min Rain = 0
KBO1 032107Z 18009KT 33/08 A3005 RMK A01 T03320081  RH  021%=      5-min Rain = 0
KBO1 032108Z 19010KT 33/08 A3005 RMK A01 T03290082  RH  022%=      5-min Rain = 0
KBO1 032109Z 19010KT 33/08 A3005 RMK A01 T03290081  RH  022%=      5-min Rain = 0
KBO1 032110Z 17010KT 33/08 A3005 RMK A01 T03280081  RH  022%=      5-min Rain = 0
KBO1 032111Z 17008KT 33/08 A3005 RMK A01 T03290081  RH  022%=      5-min Rain = 0
KBO1 032112Z 18011KT 33/08 A3005 RMK A01 T03310083  RH  022%=      5-min Rain = 0
KBO1 032113Z 18012KT 33/08 A3005 RMK A01 T03330080  RH  021%=      5-min Rain = 0
KBO1 032114Z 18010KT 33/08 A3005 RMK A01 T03320080  RH  021%=      5-min Rain = 0
KBO1 032115Z 18013KT 33/08 A3005 RMK A01 T03330082  RH  021%=      5-min Rain = 0
KBO1 032116Z 17011KT 34/08 A3005 RMK A01 T03350080  RH  021%=      5-min Rain = 0
KBO1 032117Z 18011KT 33/08 A3005 RMK A01 T03340081  RH  021%=      5-min Rain = 0
KBO1 032118Z 19010G15KT 34/08 A3005 RMK A01 T03350080  RH  021%=      5-min Rain = 0
KBO1 032119Z 21006KT 33/08 A3005 RMK A01 T03330079  RH  021%=      5-min Rain = 0
KBO1 032120Z 23005KT 33/08 A3005 RMK A01 T03320081  RH  021%=      5-min Rain = 0
KBO1 032121Z 23003KT 33/08 A3005 RMK A01 T03320079  RH  021%=      5-min Rain = 0
KBO1 032122Z 23002KT 33/08 A3005 RMK A01 T03320078  RH  021%=      5-min Rain = 0
KBO1 032123Z 15003KT 33/08 A3005 RMK A01 T03330081  RH  021%=      5-min Rain = 0
KBO1 032124Z 13004KT 34/08 A3005 RMK A01 T03350081  RH  021%=      5-min Rain = 0
KBO1 032125Z 18007G15KT 34/08 A3005 RMK A01 T03350082  RH  021%=      5-min Rain = 0
KBO1 032126Z 18012KT 34/08 A3004 RMK A01 T03360082  RH  021%=      5-min Rain = 0
KBO1 032127Z 17008KT 34/08 A3005 RMK A01 T03360080  RH  021%=      5-min Rain = 0
KBO1 032128Z 21006KT 33/08 A3004 RMK A01 T03310079  RH  021%=      5-min Rain = 0
KBO1 032129Z 24002KT 33/08 A3004 RMK A01 T03280080  RH  021%=      5-min Rain = 0
KBO1 032130Z 20005KT 33/08 A3004 RMK A01 T03270079  RH  022%=      5-min Rain = 0
KBO1 032131Z 19005KT 33/08 A3004 RMK A01 T03260078  RH  021%=      5-min Rain = 0
KBO1 032132Z 17006KT 33/08 A3004 RMK A01 T03250079  RH  022%=      5-min Rain = 0
KBO1 032133Z 19004KT 33/08 A3004 RMK A01 T03260079  RH  022%=      5-min Rain = 0
KBO1 032134Z 20008KT 33/08 A3004 RMK A01 T03270080  RH  022%=      5-min Rain = 0
KBO1 032135Z 21006KT 33/08 A3004 RMK A01 T03270079  RH  022%=      5-min Rain = 0
KBO1 032136Z 21006KT 32/08 A3004 RMK A01 T03240079  RH  022%=      5-min Rain = 0
KBO1 032137Z 17005KT 32/08 A3004 RMK A01 T03230080  RH  022%=      5-min Rain = 0
KBO1 032138Z 16005KT 32/08 A3004 RMK A01 T03230081  RH  022%=      5-min Rain = 0
KBO1 032139Z 15008KT 32/08 A3004 RMK A01 T03240080  RH  022%=      5-min Rain = 0
KBO1 032140Z 13007KT 32/08 A3004 RMK A01 T03230080  RH  022%=      5-min Rain = 0
KBO1 032141Z 12004KT 32/08 A3004 RMK A01 T03230079  RH  022%=      5-min Rain = 0
KBO1 032142Z 13004KT 32/08 A3004 RMK A01 T03230081  RH  022%=      5-min Rain = 0
KBO1 032143Z 13002KT 33/08 A3004 RMK A01 T03250080  RH  022%=      5-min Rain = 0
KBO1 032144Z 12004KT 33/08 A3004 RMK A01 T03260081  RH  022%=      5-min Rain = 0
KBO1 032145Z 15005KT 33/08 A3004 RMK A01 T03270081  RH  022%=      5-min Rain = 0
KBO1 032146Z 16006KT 33/08 A3004 RMK A01 T03270079  RH  022%=      5-min Rain = 0
KBO1 032147Z 18003KT 33/08 A3004 RMK A01 T03250076  RH  021%=      5-min Rain = 0
KBO1 032148Z 14003KT 32/08 A3004 RMK A01 T03240078  RH  022%=      5-min Rain = 0
KBO1 032149Z 26004KT 33/08 A3004 RMK A01 T03250080  RH  022%=      5-min Rain = 0
KBO1 032150Z 27005KT 33/08 A3004 RMK A01 T03260083  RH  022%=      5-min Rain = 0
KBO1 032151Z 24009G15KT 33/08 A3004 RMK A01 T03270083  RH  022%=      5-min Rain = 0
KBO1 032152Z 24012KT 33/08 A3004 RMK A01 T03280083  RH  022%=      5-min Rain = 0
KBO1 032153Z 24011KT 33/08 A3003 RMK A01 T03270083  RH  022%=      5-min Rain = 0
KBO1 032154Z 25012KT 33/08 A3003 RMK A01 T03270082  RH  022%=      5-min Rain = 0
KBO1 032155Z 24010KT 33/08 A3003 RMK A01 T03260081  RH  022%=      5-min Rain = 0
KBO1 032156Z 23009KT 33/08 A3003 RMK A01 T03250083  RH  022%=      5-min Rain = 0
KBO1 032157Z 22009KT 33/08 A3003 RMK A01 T03290084  RH  022%=      5-min Rain = 0
KBO1 032158Z 21006KT 33/08 A3003 RMK A01 T03300081  RH  021%=      5-min Rain = 0
KBO1 032159Z 23006G14KT 33/08 A3003 RMK A01 T03290082  RH  022%=      5-min Rain = 0
KBO1 032200Z 24013KT 33/08 A3003 RMK A01 T03300083  RH  022%=      5-min Rain = 0
KBO1 032201Z 25010KT 34/08 A3003 RMK A01 T03350081  RH  021%=      5-min Rain = 0
KBO1 032202Z 25009KT 34/08 A3003 RMK A01 T03380081  RH  021%=      5-min Rain = 0
KBO1 032203Z 26008KT 34/08 A3003 RMK A01 T03370082  RH  021%=      5-min Rain = 0
KBO1 032204Z 25006KT 34/08 A3003 RMK A01 T03360084  RH  021%=      5-min Rain = 0
KBO1 032205Z 27004KT 34/09 A3003 RMK A01 T03380085  RH  021%=      5-min Rain = 0
KBO1 032206Z 24005KT 34/09 A3003 RMK A01 T03390086  RH  021%=      5-min Rain = 0
KBO1 032207Z 22011KT 34/09 A3003 RMK A01 T03390087  RH  021%=      5-min Rain = 0
KBO1 032208Z 20014KT 34/09 A3003 RMK A01 T03390089  RH  021%=      5-min Rain = 0
KBO1 032209Z 19012KT 34/09 A3003 RMK A01 T03380088  RH  021%=      5-min Rain = 0
KBO1 032210Z 21013KT 34/09 A3003 RMK A01 T03380090  RH  022%=      5-min Rain = 0
KBO1 032211Z 22013KT 34/09 A3003 RMK A01 T03400089  RH  021%=      5-min Rain = 0
KBO1 032212Z 24010KT 34/09 A3003 RMK A01 T03360088  RH  022%=      5-min Rain = 0
KBO1 032213Z 25011KT 34/09 A3003 RMK A01 T03350088  RH  022%=      5-min Rain = 0
KBO1 032214Z 23009KT 34/09 A3003 RMK A01 T03350088  RH  022%=      5-min Rain = 0
KBO1 032215Z 20012KT 34/09 A3002 RMK A01 T03400092  RH  022%=      5-min Rain = 0
KBO1 032216Z 19012KT 34/09 A3003 RMK A01 T03440090  RH  021%=      5-min Rain = 0
KBO1 032217Z 19009KT 34/09 A3003 RMK A01 T03380088  RH  021%=      5-min Rain = 0
KBO1 032218Z 20014KT 33/09 A3003 RMK A01 T03320088  RH  022%=      5-min Rain = 0
KBO1 032219Z 19012KT 33/09 A3003 RMK A01 T03280088  RH  023%=      5-min Rain = 0
KBO1 032220Z 19010KT 33/09 A3003 RMK A01 T03270088  RH  023%=      5-min Rain = 0
KBO1 032221Z 19007KT 33/09 A3003 RMK A01 T03270086  RH  023%=      5-min Rain = 0
KBO1 032222Z 21007KT 33/09 A3003 RMK A01 T03270088  RH  023%=      5-min Rain = 0
KBO1 032223Z 19010KT 33/09 A3003 RMK A01 T03280088  RH  023%=      5-min Rain = 0
KBO1 032224Z 17014KT 33/09 A3002 RMK A01 T03280088  RH  023%=      5-min Rain = 0
KBO1 032225Z 18013G18KT 33/09 A3002 RMK A01 T03280088  RH  023%=      5-min Rain = 0
KBO1 032226Z 18013KT 33/09 A3002 RMK A01 T03260087  RH  023%=      5-min Rain = 0
KBO1 032227Z 19011KT 32/09 A3002 RMK A01 T03240087  RH  023%=      5-min Rain = 0
KBO1 032228Z 20010KT 32/09 A3002 RMK A01 T03230088  RH  023%=      5-min Rain = 0
KBO1 032229Z 19006KT 32/09 A3002 RMK A01 T03240086  RH  023%=      5-min Rain = 0
KBO1 032230Z 20007KT 32/09 A3002 RMK A01 T03240089  RH  023%=      5-min Rain = 0
KBO1 032231Z 18009KT 33/09 A3002 RMK A01 T03280090  RH  023%=      5-min Rain = 0
KBO1 032232Z 20010KT 33/09 A3002 RMK A01 T03300089  RH  023%=      5-min Rain = 0
KBO1 032233Z 20012KT 33/09 A3002 RMK A01 T03300089  RH  023%=      5-min Rain = 0
KBO1 032234Z 22014KT 33/09 A3002 RMK A01 T03300088  RH  023%=      5-min Rain = 0
KBO1 032235Z 21012KT 33/09 A3002 RMK A01 T03280087  RH  023%=      5-min Rain = 0
KBO1 032236Z 21008KT 33/09 A3002 RMK A01 T03270087  RH  023%=      5-min Rain = 0
KBO1 032237Z 21009KT 33/09 A3002 RMK A01 T03260088  RH  023%=      5-min Rain = 0
KBO1 032238Z 21010KT 32/09 A3002 RMK A01 T03240086  RH  023%=      5-min Rain = 0
KBO1 032239Z 19009KT 32/09 A3002 RMK A01 T03220087  RH  023%=      5-min Rain = 0
KBO1 032240Z 21010KT 32/09 A3002 RMK A01 T03210087  RH  023%=      5-min Rain = 0
KBO1 032241Z 24014KT 32/09 A3002 RMK A01 T03210088  RH  024%=      5-min Rain = 0
KBO1 032242Z 25017KT 32/09 A3002 RMK A01 T03210085  RH  023%=      5-min Rain = 0
KBO1 032243Z 25014KT 32/09 A3002 RMK A01 T03200085  RH  023%=      5-min Rain = 0
KBO1 032244Z 24012KT 32/08 A3002 RMK A01 T03190084  RH  023%=      5-min Rain = 0
KBO1 032245Z 25011KT 32/08 A3002 RMK A01 T03190084  RH  023%=      5-min Rain = 0
KBO1 032246Z 24010KT 32/08 A3002 RMK A01 T03180084  RH  023%=      5-min Rain = 0
KBO1 032247Z 23011KT 32/09 A3002 RMK A01 T03180085  RH  024%=      5-min Rain = 0
KBO1 032248Z 24010KT 32/09 A3002 RMK A01 T03180085  RH  024%=      5-min Rain = 0
KBO1 032249Z 22009KT 32/09 A3002 RMK A01 T03170085  RH  024%=      5-min Rain = 0
KBO1 032250Z 23009KT 32/09 A3002 RMK A01 T03170086  RH  024%=      5-min Rain = 0
KBO1 032251Z 25009KT 32/09 A3002 RMK A01 T03170086  RH  024%=      5-min Rain = 0
KBO1 032252Z 24008KT 32/09 A3002 RMK A01 T03180086  RH  024%=      5-min Rain = 0
KBO1 032253Z 24008KT 32/09 A3002 RMK A01 T03180085  RH  024%=      5-min Rain = 0
KBO1 032254Z 24011KT 32/09 A3002 RMK A01 T03190087  RH  024%=      5-min Rain = 0
KBO1 032255Z 23010KT 32/09 A3002 RMK A01 T03190088  RH  024%=      5-min Rain = 0
KBO1 032256Z 21012KT 32/09 A3002 RMK A01 T03200088  RH  024%=      5-min Rain = 0
KBO1 032257Z 19010KT 32/09 A3001 RMK A01 T03210086  RH  023%=      5-min Rain = 0
KBO1 032258Z 19010KT 32/09 A3001 RMK A01 T03210087  RH  023%=      5-min Rain = 0
KBO1 032259Z 21008KT 32/09 A3002 RMK A01 T03220087  RH  023%=      5-min Rain = 0
KBO1 032300Z 24009KT 32/09 A3001 RMK A01 T03240088  RH  023%=      5-min Rain = 0
KBO1 032301Z 27010KT 33/09 A3001 RMK A01 T03260089  RH  023%=      5-min Rain = 0
KBO1 032302Z 27010KT 33/09 A3001 RMK A01 T03280089  RH  023%=      5-min Rain = 0
KBO1 032303Z 26012KT 33/09 A3001 RMK A01 T03280089  RH  023%=      5-min Rain = 0
KBO1 032304Z 25011KT 33/09 A3001 RMK A01 T03250088  RH  023%=      5-min Rain = 0
KBO1 032305Z 23014KT 32/09 A3001 RMK A01 T03220089  RH  024%=      5-min Rain = 0
KBO1 032306Z 24014KT 32/09 A3001 RMK A01 T03210089  RH  024%=      5-min Rain = 0
KBO1 032307Z 23017KT 32/09 A3001 RMK A01 T03200089  RH  024%=      5-min Rain = 0
KBO1 032308Z 23013KT 32/09 A3001 RMK A01 T03190089  RH  024%=      5-min Rain = 0
KBO1 032309Z 22014KT 32/09 A3001 RMK A01 T03190090  RH  024%=      5-min Rain = 0
KBO1 032310Z 21013KT 32/09 A3001 RMK A01 T03190090  RH  024%=      5-min Rain = 0
KBO1 032311Z 21015KT 32/09 A3001 RMK A01 T03180090  RH  024%=      5-min Rain = 0
KBO1 032312Z 21013KT 32/09 A3001 RMK A01 T03180090  RH  024%=      5-min Rain = 0
KBO1 032313Z 20013KT 32/09 A3001 RMK A01 T03180089  RH  024%=      5-min Rain = 0
KBO1 032314Z 22014KT 32/09 A3001 RMK A01 T03190093  RH  025%=      5-min Rain = 0
KBO1 032315Z 23013KT 32/09 A3001 RMK A01 T03190093  RH  025%=      5-min Rain = 0
KBO1 032316Z 22011KT 32/09 A3001 RMK A01 T03170094  RH  025%=      5-min Rain = 0
KBO1 032317Z 21009KT 32/09 A3001 RMK A01 T03170092  RH  025%=      5-min Rain = 0
KBO1 032318Z 22008KT 32/09 A3001 RMK A01 T03160094  RH  025%=      5-min Rain = 0
KBO1 032319Z 22007KT 32/10 A3001 RMK A01 T03210096  RH  025%=      5-min Rain = 0
KBO1 032320Z 21010KT 33/09 A3001 RMK A01 T03250094  RH  024%=      5-min Rain = 0
KBO1 032321Z 24012KT 33/09 A3001 RMK A01 T03270094  RH  024%=      5-min Rain = 0
KBO1 032322Z 24013KT 33/09 A3001 RMK A01 T03290093  RH  023%=      5-min Rain = 0
KBO1 032323Z 23014KT 33/09 A3001 RMK A01 T03260094  RH  024%=      5-min Rain = 0
KBO1 032324Z 23014KT 33/09 A3001 RMK A01 T03250093  RH  024%=      5-min Rain = 0
KBO1 032325Z 22012KT 33/09 A3001 RMK A01 T03250093  RH  024%=      5-min Rain = 0
KBO1 032326Z 21012KT 32/09 A3001 RMK A01 T03240094  RH  024%=      5-min Rain = 0
KBO1 032327Z 21013KT 32/09 A3001 RMK A01 T03220094  RH  024%=      5-min Rain = 0
KBO1 032328Z 21012KT 32/10 A3001 RMK A01 T03220095  RH  025%=      5-min Rain = 0
KBO1 032329Z 22015KT 32/09 A3001 RMK A01 T03220094  RH  025%=      5-min Rain = 0
KBO1 032330Z 22015KT 32/09 A3001 RMK A01 T03190093  RH  025%=      5-min Rain = 0
KBO1 032331Z 23012KT 32/09 A3001 RMK A01 T03180093  RH  025%=      5-min Rain = 0
KBO1 032332Z 22010KT 32/09 A3001 RMK A01 T03180092  RH  025%=      5-min Rain = 0
KBO1 032333Z 22011KT 32/09 A3001 RMK A01 T03180093  RH  025%=      5-min Rain = 0
KBO1 032334Z 22011KT 32/09 A3001 RMK A01 T03180092  RH  025%=      5-min Rain = 0
KBO1 032335Z 21009KT 32/09 A3001 RMK A01 T03170091  RH  025%=      5-min Rain = 0
KBO1 032336Z 21012KT 32/09 A3001 RMK A01 T03170092  RH  025%=      5-min Rain = 0
KBO1 032337Z 21012KT 32/10 A3001 RMK A01 T03190095  RH  025%=      5-min Rain = 0
KBO1 032338Z 21011KT 32/10 A3001 RMK A01 T03220095  RH  025%=      5-min Rain = 0
KBO1 032339Z 20012KT 32/10 A3001 RMK A01 T03230096  RH  025%=      5-min Rain = 0
KBO1 032340Z 21014KT 32/10 A3001 RMK A01 T03220096  RH  025%=      5-min Rain = 0
KBO1 032341Z 22013KT 32/09 A3001 RMK A01 T03200094  RH  025%=      5-min Rain = 0
KBO1 032342Z 22014KT 32/09 A3001 RMK A01 T03190093  RH  025%=      5-min Rain = 0
KBO1 032343Z 21015KT 32/09 A30 RMK A01 T03180093  RH  025%=      5-min Rain = 0
KBO1 032344Z 21013KT 32/09 A3001 RMK A01 T03180093  RH  025%=      5-min Rain = 0
KBO1 032345Z 22014KT 32/09 A3001 RMK A01 T03190092  RH  025%=      5-min Rain = 0
KBO1 032346Z 21012KT 32/09 A30 RMK A01 T03190091  RH  024%=      5-min Rain = 0
KBO1 032347Z 21014KT 32/09 A30 RMK A01 T03190092  RH  025%=      5-min Rain = 0
KBO1 032348Z 21012KT 32/09 A30 RMK A01 T03190094  RH  025%=      5-min Rain = 0
KBO1 032349Z 21014KT 32/10 A30 RMK A01 T03190096  RH  025%=      5-min Rain = 0
KBO1 032350Z 20014KT 32/10 A30 RMK A01 T03180095  RH  025%=      5-min Rain = 0
KBO1 032351Z 20013KT 32/09 A30 RMK A01 T03170093  RH  025%=      5-min Rain = 0
KBO1 032352Z 21013KT 32/09 A30 RMK A01 T03170093  RH  025%=      5-min Rain = 0
KBO1 032353Z 21012KT 32/09 A30 RMK A01 T03170093  RH  025%=      5-min Rain = 0
KBO1 032354Z 22012KT 32/10 A30 RMK A01 T03150095  RH  026%=      5-min Rain = 0
KBO1 032355Z 21012KT 31/10 A30 RMK A01 T03130095  RH  026%=      5-min Rain = 0
KBO1 032356Z 21012KT 31/09 A30 RMK A01 T03120094  RH  026%=      5-min Rain = 0
KBO1 032357Z 22012KT 31/09 A30 RMK A01 T03110093  RH  026%=      5-min Rain = 0
KBO1 032358Z 21010KT 31/09 A30 RMK A01 T03100094  RH  026%=      5-min Rain = 0
KBO1 032359Z 20012KT 31/10 A30 RMK A01 T03110095  RH  026%=      5-min Rain = 0
KBO1 040000Z 20011KT 31/09 A30 RMK A01 T03130093  RH  026%=      5-min Rain = 0
KBO1 040001Z 21009KT 32/09 A30 RMK A01 T03150093  RH  025%=      5-min Rain = 0
KBO1 040002Z 20009KT 32/10 A30 RMK A01 T03180095  RH  025%=      5-min Rain = 0
KBO1 040003Z 21011KT 32/10 A30 RMK A01 T03200095  RH  025%=      5-min Rain = 0
KBO1 040004Z 20012KT 32/09 A30 RMK A01 T03190094  RH  025%=      5-min Rain = 0
KBO1 040005Z 21013KT 32/09 A30 RMK A01 T03160094  RH  025%=      5-min Rain = 0
KBO1 040006Z 20013KT 31/09 A30 RMK A01 T03140093  RH  025%=      5-min Rain = 0
KBO1 040007Z 20011KT 31/09 A30 RMK A01 T03120093  RH  026%=      5-min Rain = 0
KBO1 040008Z 20010KT 31/09 A30 RMK A01 T03120092  RH  026%=      5-min Rain = 0
KBO1 040009Z 20010KT 31/09 A30 RMK A01 T03120092  RH  026%=      5-min Rain = 0
KBO1 040010Z 20010KT 31/09 A30 RMK A01 T03110092  RH  026%=      5-min Rain = 0
KBO1 040011Z 20009KT 31/09 A30 RMK A01 T03110094  RH  026%=      5-min Rain = 0
KBO1 040012Z 20009KT 31/09 A30 RMK A01 T03110091  RH  026%=      5-min Rain = 0
KBO1 040013Z 20011KT 31/09 A30 RMK A01 T03110092  RH  026%=      5-min Rain = 0
KBO1 040014Z 20012KT 31/09 A30 RMK A01 T03110091  RH  026%=      5-min Rain = 0
KBO1 040015Z 21012KT 31/09 A30 RMK A01 T03110092  RH  026%=      5-min Rain = 0
KBO1 040016Z 20013KT 31/09 A30 RMK A01 T03110094  RH  026%=      5-min Rain = 0
KBO1 040017Z 20012KT 31/09 A30 RMK A01 T03110094  RH  026%=      5-min Rain = 0
KBO1 040018Z 20014KT 31/10 A30 RMK A01 T03120095  RH  026%=      5-min Rain = 0
KBO1 040019Z 19012KT 31/10 A30 RMK A01 T03130095  RH  026%=      5-min Rain = 0
KBO1 040020Z 20012KT 32/10 A30 RMK A01 T03150096  RH  026%=      5-min Rain = 0
KBO1 040021Z 21011KT 32/10 A30 RMK A01 T03150098  RH  026%=      5-min Rain = 0
KBO1 040022Z 20012KT 31/10 A30 RMK A01 T03140098  RH  026%=      5-min Rain = 0
KBO1 040023Z 20011KT 31/10 A30 RMK A01 T03130098  RH  026%=      5-min Rain = 0
KBO1 040024Z 20012KT 31/10 A30 RMK A01 T03130098  RH  026%=      5-min Rain = 0
KBO1 040025Z 20010KT 31/10 A30 RMK A01 T03130099  RH  027%=      5-min Rain = 0
KBO1 040026Z 20010KT 31/10 A3001 RMK A01 T03130099  RH  027%=      5-min Rain = 0
KBO1 040027Z 19008KT 31/10 A3001 RMK A01 T03140099  RH  027%=      5-min Rain = 0
KBO1 040028Z 18008KT 32/10 A3001 RMK A01 T03150100  RH  026%=      5-min Rain = 0
KBO1 040029Z 19009KT 32/10 A3001 RMK A01 T03150099  RH  026%=      5-min Rain = 0
KBO1 040030Z 20009KT 32/10 A3001 RMK A01 T03150101  RH  027%=      5-min Rain = 0
KBO1 040031Z 19010KT 32/10 A3001 RMK A01 T03160099  RH  026%=      5-min Rain = 0
KBO1 040032Z 19008KT 32/10 A3001 RMK A01 T03170098  RH  026%=      5-min Rain = 0
KBO1 040033Z 19009KT 32/10 A3001 RMK A01 T03180097  RH  026%=      5-min Rain = 0
KBO1 040034Z 18009KT 32/10 A3001 RMK A01 T03180099  RH  026%=      5-min Rain = 0
KBO1 040035Z 18010KT 32/10 A3001 RMK A01 T03180099  RH  026%=      5-min Rain = 0
KBO1 040036Z 18010KT 32/10 A3001 RMK A01 T03170098  RH  026%=      5-min Rain = 0
KBO1 040037Z 19009KT 32/10 A3001 RMK A01 T03170097  RH  026%=      5-min Rain = 0
KBO1 040038Z 19010KT 32/10 A3001 RMK A01 T03170097  RH  026%=      5-min Rain = 0
KBO1 040039Z 19010KT 32/10 A30 RMK A01 T03170095  RH  025%=      5-min Rain = 0
KBO1 040040Z 20008KT 32/10 A3001 RMK A01 T03170095  RH  025%=      5-min Rain = 0
KBO1 040041Z 18008KT 32/10 A3001 RMK A01 T03170096  RH  025%=      5-min Rain = 0
KBO1 040042Z 19009KT 32/10 A3001 RMK A01 T03170096  RH  026%=      5-min Rain = 0
KBO1 040043Z 19008KT 32/10 A3001 RMK A01 T03170097  RH  026%=      5-min Rain = 0
KBO1 040044Z 20010KT 32/10 A3001 RMK A01 T03160097  RH  026%=      5-min Rain = 0
KBO1 040045Z 20010KT 32/10 A3001 RMK A01 T03160097  RH  026%=      5-min Rain = 0
KBO1 040046Z 20007KT 32/10 A3001 RMK A01 T03150097  RH  026%=      5-min Rain = 0
KBO1 040047Z 19008KT 32/10 A3001 RMK A01 T03150098  RH  026%=      5-min Rain = 0
KBO1 040048Z 19007KT 32/10 A3001 RMK A01 T03150096  RH  026%=      5-min Rain = 0
KBO1 040049Z 19008KT 32/10 A3001 RMK A01 T03160097  RH  026%=      5-min Rain = 0
KBO1 040050Z 20007KT 32/10 A3001 RMK A01 T03150097  RH  026%=      5-min Rain = 0
KBO1 040051Z 20007KT 32/10 A3001 RMK A01 T03150097  RH  026%=      5-min Rain = 0
KBO1 040052Z 20008KT 32/10 A3001 RMK A01 T03150097  RH  026%=      5-min Rain = 0
KBO1 040053Z 19006KT 31/10 A3001 RMK A01 T03140098  RH  026%=      5-min Rain = 0
KBO1 040054Z 20008KT 31/10 A3001 RMK A01 T03140098  RH  026%=      5-min Rain = 0
KBO1 040055Z 20007KT 31/10 A3001 RMK A01 T03140096  RH  026%=      5-min Rain = 0
KBO1 040056Z 20007KT 31/10 A3001 RMK A01 T03130096  RH  026%=      5-min Rain = 0
KBO1 040057Z 20007KT 31/10 A3001 RMK A01 T03130097  RH  026%=      5-min Rain = 0
KBO1 040058Z 20006KT 31/10 A3001 RMK A01 T03130096  RH  026%=      5-min Rain = 0
KBO1 040059Z 19005KT 31/10 A3001 RMK A01 T03130095  RH  026%=      5-min Rain = 0
KBO1 040100Z 18006KT 31/10 A3001 RMK A01 T03120096  RH  026%=      5-min Rain = 0
KBO1 040101Z 19006KT 31/10 A3001 RMK A01 T03130095  RH  026%=      5-min Rain = 0
KBO1 040102Z 18007KT 31/10 A3001 RMK A01 T03130096  RH  026%=      5-min Rain = 0
KBO1 040103Z 19007KT 31/10 A3001 RMK A01 T03120095  RH  026%=      5-min Rain = 0
KBO1 040104Z 18006KT 31/10 A3001 RMK A01 T03120095  RH  026%=      5-min Rain = 0
KBO1 040105Z 19006KT 31/10 A3001 RMK A01 T03120097  RH  026%=      5-min Rain = 0
KBO1 040106Z 19007KT 31/10 A3001 RMK A01 T03120097  RH  026%=      5-min Rain = 0
KBO1 040107Z 19007KT 31/10 A3001 RMK A01 T03120096  RH  026%=      5-min Rain = 0
KBO1 040108Z 19006KT 31/10 A3001 RMK A01 T03120096  RH  026%=      5-min Rain = 0
KBO1 040109Z 19006KT 31/10 A3001 RMK A01 T03120098  RH  027%=      5-min Rain = 0
KBO1 040110Z 18006KT 31/10 A3001 RMK A01 T03120098  RH  027%=      5-min Rain = 0
KBO1 040111Z 19006KT 31/10 A3001 RMK A01 T03120098  RH  027%=      5-min Rain = 0
KBO1 040112Z 19006KT 31/10 A3001 RMK A01 T03120097  RH  027%=      5-min Rain = 0
KBO1 040113Z 19008KT 31/10 A3001 RMK A01 T03110097  RH  027%=      5-min Rain = 0
KBO1 040114Z 19007KT 31/10 A3001 RMK A01 T03110097  RH  027%=      5-min Rain = 0
KBO1 040115Z 19007KT 31/10 A3001 RMK A01 T03100097  RH  027%=      5-min Rain = 0
KBO1 040116Z 19006KT 31/10 A3001 RMK A01 T03100097  RH  027%=      5-min Rain = 0
KBO1 040117Z 20006KT 31/10 A3001 RMK A01 T03100098  RH  027%=      5-min Rain = 0
KBO1 040118Z 19006KT 31/10 A3001 RMK A01 T03100099  RH  027%=      5-min Rain = 0
KBO1 040119Z 19005KT 31/10 A3001 RMK A01 T03100099  RH  027%=      5-min Rain = 0
KBO1 040120Z 19006KT 31/10 A3001 RMK A01 T03100099  RH  027%=      5-min Rain = 0
KBO1 040121Z 19005KT 31/10 A3001 RMK A01 T03090099  RH  027%=      5-min Rain = 0
KBO1 040122Z 19005KT 31/10 A3001 RMK A01 T03080100  RH  028%=      5-min Rain = 0
KBO1 040123Z 19005KT 31/10 A3001 RMK A01 T03080100  RH  028%=      5-min Rain = 0
KBO1 040124Z 19006KT 31/10 A3001 RMK A01 T03070100  RH  028%=      5-min Rain = 0
KBO1 040125Z 19006KT 31/10 A3001 RMK A01 T03070101  RH  028%=      5-min Rain = 0
KBO1 040126Z 19006KT 31/10 A3001 RMK A01 T03060100  RH  028%=      5-min Rain = 0
KBO1 040127Z 19007KT 31/10 A3001 RMK A01 T03050100  RH  028%=      5-min Rain = 0
KBO1 040128Z 19007KT 30/10 A3001 RMK A01 T03040099  RH  028%=      5-min Rain = 0
KBO1 040129Z 19007KT 30/10 A3001 RMK A01 T03020099  RH  028%=      5-min Rain = 0
KBO1 040130Z 19006KT 30/10 A3001 RMK A01 T03010099  RH  029%=      5-min Rain = 0
KBO1 040131Z 19007KT 30/10 A3001 RMK A01 T02990100  RH  029%=      5-min Rain = 0
KBO1 040132Z 19006KT 30/10 A3001 RMK A01 T02970100  RH  029%=      5-min Rain = 0
KBO1 040133Z 19006KT 30/10 A3001 RMK A01 T02950101  RH  030%=      5-min Rain = 0
KBO1 040134Z 18006KT 29/10 A3001 RMK A01 T02930101  RH  030%=      5-min Rain = 0
KBO1 040135Z 18006KT 29/10 A3001 RMK A01 T02920101  RH  030%=      5-min Rain = 0
KBO1 040136Z 18006KT 29/10 A3001 RMK A01 T02920101  RH  031%=      5-min Rain = 0
KBO1 040137Z 18007KT 29/10 A3001 RMK A01 T02900101  RH  031%=      5-min Rain = 0
KBO1 040138Z 18006KT 29/10 A3001 RMK A01 T02890101  RH  031%=      5-min Rain = 0
KBO1 040139Z 18006KT 29/10 A3001 RMK A01 T02880101  RH  031%=      5-min Rain = 0
KBO1 040140Z 18007KT 29/10 A3001 RMK A01 T02870100  RH  031%=      5-min Rain = 0
KBO1 040141Z 18007KT 29/10 A3001 RMK A01 T02870101  RH  031%=      5-min Rain = 0
KBO1 040142Z 18007KT 29/10 A3001 RMK A01 T02860100  RH  031%=      5-min Rain = 0
KBO1 040143Z 18007KT 29/10 A3001 RMK A01 T02850100  RH  032%=      5-min Rain = 0
KBO1 040144Z 18007KT 28/10 A3001 RMK A01 T02840100  RH  032%=      5-min Rain = 0
KBO1 040145Z 18007KT 28/10 A3001 RMK A01 T02820099  RH  032%=      5-min Rain = 0
KBO1 040146Z 18006KT 28/10 A3001 RMK A01 T02820099  RH  032%=      5-min Rain = 0
KBO1 040147Z 18006KT 28/10 A3001 RMK A01 T02810099  RH  032%=      5-min Rain = 0
KBO1 040148Z 18007KT 28/10 A3001 RMK A01 T02800099  RH  032%=      5-min Rain = 0
KBO1 040149Z 18007KT 28/10 A3001 RMK A01 T02790099  RH  032%=      5-min Rain = 0
KBO1 040150Z 18006KT 28/10 A3001 RMK A01 T02780099  RH  033%=      5-min Rain = 0
KBO1 040151Z 18006KT 28/10 A3001 RMK A01 T02770099  RH  033%=      5-min Rain = 0
KBO1 040152Z 17006KT 28/10 A3001 RMK A01 T02750099  RH  033%=      5-min Rain = 0
KBO1 040153Z 17006KT 27/10 A3001 RMK A01 T02740098  RH  033%=      5-min Rain = 0
KBO1 040154Z 17006KT 27/10 A3001 RMK A01 T02730099  RH  033%=      5-min Rain = 0
KBO1 040155Z 17006KT 27/10 A3001 RMK A01 T02720098  RH  034%=      5-min Rain = 0
KBO1 040156Z 17006KT 27/10 A3001 RMK A01 T02710098  RH  034%=      5-min Rain = 0
KBO1 040157Z 17006KT 27/10 A3001 RMK A01 T02700097  RH  034%=      5-min Rain = 0
KBO1 040158Z 16006KT 27/10 A3001 RMK A01 T02690097  RH  034%=      5-min Rain = 0
KBO1 040159Z 16006KT 27/10 A3001 RMK A01 T02680097  RH  034%=      5-min Rain = 0
KBO1 040200Z 17006KT 27/10 A3001 RMK A01 T02670097  RH  034%=      5-min Rain = 0
KBO1 040201Z 17006KT 27/10 A3001 RMK A01 T02660097  RH  034%=      5-min Rain = 0
KBO1 040202Z 17006KT 27/10 A3001 RMK A01 T02650097  RH  035%=      5-min Rain = 0
KBO1 040203Z 17006KT 26/10 A3001 RMK A01 T02640097  RH  035%=      5-min Rain = 0
KBO1 040204Z 17006KT 26/10 A3001 RMK A01 T02630097  RH  035%=      5-min Rain = 0
KBO1 040205Z 17006KT 26/10 A3001 RMK A01 T02620096  RH  035%=      5-min Rain = 0
KBO1 040206Z 17006KT 26/10 A3001 RMK A01 T02620097  RH  035%=      5-min Rain = 0
KBO1 040207Z 17006KT 26/10 A3001 RMK A01 T02610096  RH  035%=      5-min Rain = 0
KBO1 040208Z 17006KT 26/10 A3001 RMK A01 T02610096  RH  035%=      5-min Rain = 0
KBO1 040209Z 17006KT 26/10 A3001 RMK A01 T02620096  RH  035%=      5-min Rain = 0
KBO1 040210Z 17007KT 26/10 A3001 RMK A01 T02610096  RH  035%=      5-min Rain = 0
KBO1 040211Z 17008KT 26/10 A3001 RMK A01 T02610096  RH  035%=      5-min Rain = 0
KBO1 040212Z 16008KT 26/10 A3001 RMK A01 T02590096  RH  036%=      5-min Rain = 0
KBO1 040213Z 16008KT 26/10 A3001 RMK A01 T02570096  RH  036%=      5-min Rain = 0
KBO1 040214Z 17007KT 26/10 A3001 RMK A01 T02570096  RH  036%=      5-min Rain = 0
KBO1 040215Z 17007KT 26/10 A3002 RMK A01 T02550095  RH  036%=      5-min Rain = 0
KBO1 040216Z 17008KT 25/09 A3002 RMK A01 T02530094  RH  037%=      5-min Rain = 0
KBO1 040217Z 18009KT 25/09 A3002 RMK A01 T02510093  RH  037%=      5-min Rain = 0
KBO1 040218Z 18009KT 25/09 A3002 RMK A01 T02500094  RH  037%=      5-min Rain = 0
KBO1 040219Z 18009KT 25/09 A3002 RMK A01 T02500094  RH  037%=      5-min Rain = 0
KBO1 040220Z 18009KT 25/10 A3002 RMK A01 T02500095  RH  037%=      5-min Rain = 0
KBO1 040221Z 18009KT 25/10 A3002 RMK A01 T02520096  RH  037%=      5-min Rain = 0
KBO1 040222Z 18009KT 25/10 A3002 RMK A01 T02530097  RH  037%=      5-min Rain = 0
KBO1 040223Z 18009KT 25/10 A3002 RMK A01 T02540097  RH  037%=      5-min Rain = 0
KBO1 040224Z 18009KT 26/10 A3002 RMK A01 T02550098  RH  037%=      5-min Rain = 0
KBO1 040225Z 18008KT 26/10 A3002 RMK A01 T02550099  RH  037%=      5-min Rain = 0
KBO1 040226Z 18008KT 26/10 A3002 RMK A01 T02550099  RH  037%=      5-min Rain = 0
KBO1 040227Z 17008KT 25/10 A3002 RMK A01 T02540099  RH  037%=      5-min Rain = 0
KBO1 040228Z 17008KT 25/10 A3002 RMK A01 T02540099  RH  038%=      5-min Rain = 0
KBO1 040229Z 18008KT 25/10 A3002 RMK A01 T02530099  RH  038%=      5-min Rain = 0
KBO1 040230Z 17008KT 25/10 A3002 RMK A01 T02520100  RH  038%=      5-min Rain = 0
KBO1 040231Z 17008KT 25/10 A3002 RMK A01 T02510100  RH  038%=      5-min Rain = 0
KBO1 040232Z 17008KT 25/10 A3003 RMK A01 T02500100  RH  039%=      5-min Rain = 0
KBO1 040233Z 18008KT 25/10 A3003 RMK A01 T02500100  RH  039%=      5-min Rain = 0
KBO1 040234Z 18008KT 25/10 A3003 RMK A01 T02500100  RH  039%=      5-min Rain = 0
KBO1 040235Z 18008KT 25/10 A3003 RMK A01 T02500100  RH  039%=      5-min Rain = 0
KBO1 040236Z 18007KT 25/10 A3003 RMK A01 T02510101  RH  039%=      5-min Rain = 0
KBO1 040237Z 18007KT 25/10 A3003 RMK A01 T02520101  RH  039%=      5-min Rain = 0
KBO1 040238Z 18007KT 25/10 A3003 RMK A01 T02520101  RH  039%=      5-min Rain = 0
KBO1 040239Z 18007KT 25/10 A3003 RMK A01 T02520101  RH  039%=      5-min Rain = 0
KBO1 040240Z 18007KT 25/10 A3003 RMK A01 T02510102  RH  039%=      5-min Rain = 0
KBO1 040241Z 18007KT 25/10 A3003 RMK A01 T02500102  RH  039%=      5-min Rain = 0
KBO1 040242Z 18008KT 25/10 A3003 RMK A01 T02500102  RH  039%=      5-min Rain = 0
KBO1 040243Z 18008KT 25/10 A3003 RMK A01 T02490102  RH  040%=      5-min Rain = 0
KBO1 040244Z 18008KT 25/10 A3003 RMK A01 T02490102  RH  040%=      5-min Rain = 0
KBO1 040245Z 18008KT 25/10 A3003 RMK A01 T02490103  RH  040%=      5-min Rain = 0
KBO1 040246Z 18007KT 25/10 A3003 RMK A01 T02490103  RH  040%=      5-min Rain = 0
KBO1 040247Z 18007KT 25/10 A3003 RMK A01 T02500103  RH  040%=      5-min Rain = 0
KBO1 040248Z 18008KT 25/10 A3003 RMK A01 T02500103  RH  040%=      5-min Rain = 0
KBO1 040249Z 18008KT 25/10 A3003 RMK A01 T02500103  RH  040%=      5-min Rain = 0
KBO1 040250Z 19007KT 25/10 A3003 RMK A01 T02500103  RH  040%=      5-min Rain = 0
KBO1 040251Z 18007KT 25/10 A3003 RMK A01 T02500103  RH  040%=      5-min Rain = 0
KBO1 040252Z 18006KT 25/10 A3003 RMK A01 T02500104  RH  040%=      5-min Rain = 0
KBO1 040253Z 18005KT 25/10 A3004 RMK A01 T02500103  RH  040%=      5-min Rain = 0
KBO1 040254Z 12002KT 25/10 A3004 RMK A01 T02500104  RH  040%=      5-min Rain = 0
KBO1 040255Z 02010KT 25/11 A3005 RMK A01 T02500105  RH  040%=      5-min Rain = 0
KBO1 040256Z 02011KT 25/10 A3005 RMK A01 T02490104  RH  040%=      5-min Rain = 0
KBO1 040257Z 02012KT 25/10 A3005 RMK A01 T02490099  RH  039%=      5-min Rain = 0
KBO1 040258Z 03011KT 25/10 A3005 RMK A01 T02520097  RH  037%=      5-min Rain = 0
KBO1 040259Z 03011KT 26/10 A3005 RMK A01 T02550096  RH  037%=      5-min Rain = 0
KBO1 040300Z 05008KT 26/10 A3005 RMK A01 T02560097  RH  037%=      5-min Rain = 0
KBO1 040301Z 04013KT 26/10 A3005 RMK A01 T02560099  RH  037%=      5-min Rain = 0
KBO1 040302Z 05016KT 25/10 A3005 RMK A01 T02540100  RH  038%=      5-min Rain = 0
KBO1 040303Z 05015KT 25/10 A3005 RMK A01 T02540100  RH  038%=      5-min Rain = 0
KBO1 040304Z 04015KT 25/10 A3005 RMK A01 T02530100  RH  038%=      5-min Rain = 0
KBO1 040305Z 04014KT 25/10 A3005 RMK A01 T02520100  RH  038%=      5-min Rain = 0
KBO1 040306Z 05014KT 25/10 A3005 RMK A01 T02530100  RH  038%=      5-min Rain = 0
KBO1 040307Z 06013KT 25/10 A3005 RMK A01 T02530101  RH  038%=      5-min Rain = 0
KBO1 040308Z 06011KT 25/10 A3005 RMK A01 T02530101  RH  038%=      5-min Rain = 0
KBO1 040309Z 05009KT 25/10 A3005 RMK A01 T02520101  RH  038%=      5-min Rain = 0
KBO1 040310Z 05006KT 25/10 A3005 RMK A01 T02520101  RH  038%=      5-min Rain = 0
KBO1 040311Z 02004KT 25/10 A3005 RMK A01 T02520101  RH  038%=      5-min Rain = 0
KBO1 040312Z 03003KT 25/10 A3005 RMK A01 T02520101  RH  038%=      5-min Rain = 0
KBO1 040313Z 01002KT 25/10 A3005 RMK A01 T02510100  RH  039%=      5-min Rain = 0
KBO1 040314Z 04001KT 25/10 A3005 RMK A01 T02520101  RH  039%=      5-min Rain = 0
KBO1 040315Z 09003KT 25/10 A3005 RMK A01 T02510101  RH  039%=      5-min Rain = 0
KBO1 040316Z 08006KT 25/10 A3005 RMK A01 T02500101  RH  039%=      5-min Rain = 0
KBO1 040317Z 08007KT 25/10 A3005 RMK A01 T02510101  RH  039%=      5-min Rain = 0
KBO1 040318Z 08005KT 25/10 A3005 RMK A01 T02520102  RH  039%=      5-min Rain = 0
KBO1 040319Z 06005KT 25/10 A3005 RMK A01 T02530102  RH  038%=      5-min Rain = 0
KBO1 040320Z 05005KT 25/10 A3005 RMK A01 T02540102  RH  038%=      5-min Rain = 0
KBO1 040321Z 07006KT 26/10 A3005 RMK A01 T02560103  RH  038%=      5-min Rain = 0
KBO1 040322Z 13004KT 26/10 A3005 RMK A01 T02570102  RH  038%=      5-min Rain = 0
KBO1 040323Z 11003KT 26/10 A3005 RMK A01 T02580102  RH  037%=      5-min Rain = 0
KBO1 040324Z 09006KT 26/10 A3005 RMK A01 T02600103  RH  037%=      5-min Rain = 0
KBO1 040325Z 08006KT 26/10 A3005 RMK A01 T02610104  RH  037%=      5-min Rain = 0
KBO1 040326Z 03006KT 26/10 A3005 RMK A01 T02640104  RH  037%=      5-min Rain = 0
KBO1 040327Z 05006KT 26/10 A3005 RMK A01 T02640103  RH  036%=      5-min Rain = 0
KBO1 040328Z 04010KT 26/10 A3006 RMK A01 T02620102  RH  037%=      5-min Rain = 0
KBO1 040329Z 04009KT 26/10 A3006 RMK A01 T02560101  RH  038%=      5-min Rain = 0
KBO1 040330Z 04009KT 25/10 A3006 RMK A01 T02500101  RH  039%=      5-min Rain = 0
KBO1 040331Z 03008KT 25/10 A3006 RMK A01 T02460101  RH  040%=      5-min Rain = 0
KBO1 040332Z 03009KT 24/10 A3006 RMK A01 T02440101  RH  040%=      5-min Rain = 0
KBO1 040333Z 04010KT 24/10 A3006 RMK A01 T02410101  RH  041%=      5-min Rain = 0
KBO1 040334Z 04010KT 24/10 A3006 RMK A01 T02380101  RH  042%=      5-min Rain = 0
KBO1 040335Z 05009KT 24/10 A3006 RMK A01 T02370101  RH  042%=      5-min Rain = 0
KBO1 040336Z 05007KT 24/10 A3006 RMK A01 T02370101  RH  042%=      5-min Rain = 0
KBO1 040337Z 06008KT 24/10 A3006 RMK A01 T02370102  RH  042%=      5-min Rain = 0
KBO1 040338Z 05007KT 24/10 A3006 RMK A01 T02370101  RH  042%=      5-min Rain = 0
KBO1 040339Z 06006KT 24/10 A3006 RMK A01 T02370102  RH  042%=      5-min Rain = 0
KBO1 040340Z 07006KT 24/10 A3006 RMK A01 T02350101  RH  043%=      5-min Rain = 0
KBO1 040341Z 07005KT 24/10 A3006 RMK A01 T02350101  RH  043%=      5-min Rain = 0
KBO1 040342Z 06006KT 23/10 A3006 RMK A01 T02340101  RH  043%=      5-min Rain = 0
KBO1 040343Z 06005KT 23/10 A3006 RMK A01 T02330101  RH  043%=      5-min Rain = 0
KBO1 040344Z 07007KT 23/10 A3006 RMK A01 T02320101  RH  043%=      5-min Rain = 0
KBO1 040345Z 07006KT 23/10 A3006 RMK A01 T02310101  RH  044%=      5-min Rain = 0
KBO1 040346Z 06006KT 23/10 A3006 RMK A01 T02310102  RH  044%=      5-min Rain = 0
KBO1 040347Z 07006KT 23/10 A3006 RMK A01 T02300101  RH  044%=      5-min Rain = 0
KBO1 040348Z 07006KT 23/10 A3006 RMK A01 T02290101  RH  044%=      5-min Rain = 0
KBO1 040349Z 06006KT 23/10 A3006 RMK A01 T02290101  RH  044%=      5-min Rain = 0
KBO1 040350Z 06006KT 23/10 A3006 RMK A01 T02290102  RH  044%=      5-min Rain = 0
KBO1 040351Z 06006KT 23/10 A3006 RMK A01 T02290102  RH  045%=      5-min Rain = 0
KBO1 040352Z 05005KT 23/10 A3006 RMK A01 T02280102  RH  045%=      5-min Rain = 0
KBO1 040353Z 05005KT 23/10 A3006 RMK A01 T02280102  RH  045%=      5-min Rain = 0
KBO1 040354Z 05006KT 23/10 A3006 RMK A01 T02270101  RH  045%=      5-min Rain = 0
KBO1 040355Z 05005KT 23/10 A3006 RMK A01 T02260101  RH  045%=      5-min Rain = 0
KBO1 040356Z 04005KT 23/10 A3006 RMK A01 T02260102  RH  045%=      5-min Rain = 0
KBO1 040357Z 05005KT 23/10 A3006 RMK A01 T02260102  RH  045%=      5-min Rain = 0
KBO1 040358Z 05005KT 23/10 A3006 RMK A01 T02250102  RH  045%=      5-min Rain = 0
KBO1 040359Z 06005KT 22/10 A3007 RMK A01 T02240102  RH  046%=      5-min Rain = 0
KBO1 040400Z 06005KT 22/10 A3007 RMK A01 T02230102  RH  046%=      5-min Rain = 0
KBO1 040401Z 07004KT 22/10 A3007 RMK A01 T02220102  RH  046%=      5-min Rain = 0
KBO1 040402Z 07004KT 22/10 A3007 RMK A01 T02210102  RH  047%=      5-min Rain = 0
KBO1 040403Z 07005KT 22/10 A3007 RMK A01 T02210102  RH  047%=      5-min Rain = 0
KBO1 040404Z 07005KT 22/10 A3007 RMK A01 T02200102  RH  047%=      5-min Rain = 0
KBO1 040405Z 08004KT 22/10 A3007 RMK A01 T02190102  RH  047%=      5-min Rain = 0
KBO1 040406Z 07003KT 22/10 A3007 RMK A01 T02190102  RH  047%=      5-min Rain = 0
KBO1 040407Z 07004KT 22/10 A3007 RMK A01 T02180102  RH  048%=      5-min Rain = 0
KBO1 040408Z 07004KT 22/10 A3007 RMK A01 T02180102  RH  048%=      5-min Rain = 0
KBO1 040409Z 07003KT 22/10 A3007 RMK A01 T02180102  RH  048%=      5-min Rain = 0
KBO1 040410Z 07004KT 22/10 A3007 RMK A01 T02180102  RH  048%=      5-min Rain = 0
KBO1 040411Z 07005KT 22/10 A3007 RMK A01 T02180102  RH  048%=      5-min Rain = 0
KBO1 040412Z 07006KT 22/10 A3007 RMK A01 T02170102  RH  048%=      5-min Rain = 0
KBO1 040413Z 07007KT 22/10 A3007 RMK A01 T02170103  RH  048%=      5-min Rain = 0
KBO1 040414Z 06007KT 22/10 A3007 RMK A01 T02170103  RH  048%=      5-min Rain = 0
KBO1 040415Z 07007KT 22/10 A3007 RMK A01 T02170102  RH  048%=      5-min Rain = 0
KBO1 040416Z 07008KT 22/10 A3007 RMK A01 T02170103  RH  048%=      5-min Rain = 0
KBO1 040417Z 07008KT 22/10 A3007 RMK A01 T02170102  RH  048%=      5-min Rain = 0
KBO1 040418Z 07008KT 22/10 A3007 RMK A01 T02170102  RH  048%=      5-min Rain = 0
KBO1 040419Z 08008KT 22/10 A3007 RMK A01 T02180103  RH  048%=      5-min Rain = 0
KBO1 040420Z 08007KT 22/10 A3007 RMK A01 T02180103  RH  048%=      5-min Rain = 0
KBO1 040421Z 08008KT 22/10 A3007 RMK A01 T02180103  RH  048%=      5-min Rain = 0
KBO1 040422Z 08008KT 22/10 A3007 RMK A01 T02180103  RH  048%=      5-min Rain = 0
KBO1 040423Z 08009KT 22/10 A3007 RMK A01 T02170103  RH  048%=      5-min Rain = 0
KBO1 040424Z 08010KT 22/10 A3007 RMK A01 T02170103  RH  048%=      5-min Rain = 0
KBO1 040425Z 08011KT 22/10 A3007 RMK A01 T02170103  RH  048%=      5-min Rain = 0
KBO1 040426Z 09009KT 22/10 A3007 RMK A01 T02190103  RH  048%=      5-min Rain = 0
KBO1 040427Z 09008KT 22/10 A3007 RMK A01 T02190103  RH  048%=      5-min Rain = 0
KBO1 040428Z 08008KT 22/10 A3007 RMK A01 T02200103  RH  048%=      5-min Rain = 0
KBO1 040429Z 08009KT 22/10 A3007 RMK A01 T02200104  RH  048%=      5-min Rain = 0
KBO1 040430Z 09010KT 22/10 A3007 RMK A01 T02190104  RH  048%=      5-min Rain = 0
KBO1 040431Z 08010KT 22/10 A3007 RMK A01 T02200104  RH  048%=      5-min Rain = 0
KBO1 040432Z 08009KT 22/10 A3007 RMK A01 T02210104  RH  047%=      5-min Rain = 0
KBO1 040433Z 08011KT 22/10 A3007 RMK A01 T02220104  RH  047%=      5-min Rain = 0
KBO1 040434Z 08010KT 22/10 A3007 RMK A01 T02230104  RH  047%=      5-min Rain = 0
KBO1 040435Z 08010KT 22/10 A3007 RMK A01 T02240104  RH  047%=      5-min Rain = 0
KBO1 040436Z 07012KT 22/11 A3007 RMK A01 T02240105  RH  047%=      5-min Rain = 0
KBO1 040437Z 07011KT 22/10 A3007 RMK A01 T02240104  RH  047%=      5-min Rain = 0
KBO1 040438Z 07012KT 23/11 A3007 RMK A01 T02250105  RH  047%=      5-min Rain = 0
KBO1 040439Z 07011KT 22/10 A3007 RMK A01 T02240104  RH  047%=      5-min Rain = 0
KBO1 040440Z 07012KT 22/10 A3007 RMK A01 T02240104  RH  047%=      5-min Rain = 0
KBO1 040441Z 08012KT 22/11 A3007 RMK A01 T02240105  RH  047%=      5-min Rain = 0
KBO1 040442Z 08010KT 22/10 A3007 RMK A01 T02240104  RH  047%=      5-min Rain = 0
KBO1 040443Z 08011KT 22/10 A3007 RMK A01 T02230104  RH  047%=      5-min Rain = 0
KBO1 040444Z 07013KT 22/10 A3007 RMK A01 T02220104  RH  047%=      5-min Rain = 0
KBO1 040445Z 07012KT 22/11 A3007 RMK A01 T02220105  RH  047%=      5-min Rain = 0
KBO1 040446Z 07013KT 22/11 A3007 RMK A01 T02220105  RH  047%=      5-min Rain = 0
KBO1 040447Z 07012KT 22/11 A3007 RMK A01 T02220105  RH  048%=      5-min Rain = 0
KBO1 040448Z 08013KT 22/11 A3007 RMK A01 T02220106  RH  048%=      5-min Rain = 0
KBO1 040449Z 08011KT 22/11 A3007 RMK A01 T02210106  RH  048%=      5-min Rain = 0
KBO1 040450Z 08012KT 22/11 A3007 RMK A01 T02200107  RH  048%=      5-min Rain = 0
KBO1 040451Z 08012KT 22/11 A3007 RMK A01 T02190107  RH  049%=      5-min Rain = 0
KBO1 040452Z 08012KT 22/11 A3007 RMK A01 T02190107  RH  049%=      5-min Rain = 0
KBO1 040453Z 08011KT 22/11 A3007 RMK A01 T02190107  RH  049%=      5-min Rain = 0
KBO1 040454Z 09011KT 22/11 A3007 RMK A01 T02180108  RH  049%=      5-min Rain = 0
KBO1 040455Z 09013KT 22/11 A3007 RMK A01 T02170108  RH  050%=      5-min Rain = 0
KBO1 040456Z 09012KT 22/11 A3007 RMK A01 T02170108  RH  050%=      5-min Rain = 0
KBO1 040457Z 08012KT 22/11 A3007 RMK A01 T02160109  RH  050%=      5-min Rain = 0
KBO1 040458Z 08012KT 22/11 A3007 RMK A01 T02160109  RH  051%=      5-min Rain = 0
KBO1 040459Z 09012KT 22/11 A3007 RMK A01 T02150109  RH  051%=      5-min Rain = 0

Page generated in 0.135 seconds.